<?xml version="1.0" encoding="UTF-8" standalone="no" ?>
<gpx xmlns="http://www.topografix.com/GPX/1/1" xmlns:xsi="http://www.w3.org/2001/XMLSchema-instance" xsi:schemaLocation="http://www.topografix.com/GPX/1/1 http://www.topografix.com/GPX/1/1/gpx.xsd" version="1.1" creator="VisuGPX - https://www.visugpx.com">
  <metadata>
    <name>20200614 We à Graulhet</name>
  </metadata>
  <trk>
    <name><![CDATA[Graulhet Damiate]]></name>
    <extensions>
      <line xmlns="http://www.topografix.com/GPX/gpx_style/0/2">
        <color>00ff0b</color>
        <width>4</width>
      </line>
    </extensions>
    <trkseg>
      <trkpt lat="43.75847" lon="1.99613">
        <ele>249.362</ele>
        <time>2020-06-14T11:22:32Z</time>
      </trkpt>
      <trkpt lat="43.75842" lon="1.99615">
        <ele>275.363</ele>
        <time>2020-06-14T11:22:37Z</time>
      </trkpt>
      <trkpt lat="43.75835" lon="1.99643">
        <ele>235.424</ele>
        <time>2020-06-14T11:22:42Z</time>
      </trkpt>
      <trkpt lat="43.75844" lon="1.99645">
        <ele>226.202</ele>
        <time>2020-06-14T11:22:47Z</time>
      </trkpt>
      <trkpt lat="43.75859" lon="1.99655">
        <ele>216.355</ele>
        <time>2020-06-14T11:22:52Z</time>
      </trkpt>
      <trkpt lat="43.75878" lon="1.99676">
        <ele>222.123</ele>
        <time>2020-06-14T11:22:58Z</time>
      </trkpt>
      <trkpt lat="43.75881" lon="1.99682">
        <ele>222.793</ele>
        <time>2020-06-14T11:23:04Z</time>
      </trkpt>
      <trkpt lat="43.75873" lon="1.9969">
        <ele>223.343</ele>
        <time>2020-06-14T11:23:09Z</time>
      </trkpt>
      <trkpt lat="43.75859" lon="1.99711">
        <ele>223.414</ele>
        <time>2020-06-14T11:23:15Z</time>
      </trkpt>
      <trkpt lat="43.75848" lon="1.99732">
        <ele>223.396</ele>
        <time>2020-06-14T11:23:21Z</time>
      </trkpt>
      <trkpt lat="43.75834" lon="1.99755">
        <ele>223.189</ele>
        <time>2020-06-14T11:23:27Z</time>
      </trkpt>
      <trkpt lat="43.7582" lon="1.99769">
        <ele>222.97</ele>
        <time>2020-06-14T11:23:32Z</time>
      </trkpt>
      <trkpt lat="43.758" lon="1.99794">
        <ele>221.707</ele>
        <time>2020-06-14T11:23:38Z</time>
      </trkpt>
      <trkpt lat="43.75781" lon="1.99819">
        <ele>221.016</ele>
        <time>2020-06-14T11:23:44Z</time>
      </trkpt>
      <trkpt lat="43.75763" lon="1.99845">
        <ele>220.681</ele>
        <time>2020-06-14T11:23:50Z</time>
      </trkpt>
      <trkpt lat="43.75747" lon="1.99867">
        <ele>220.702</ele>
        <time>2020-06-14T11:23:56Z</time>
      </trkpt>
      <trkpt lat="43.75728" lon="1.99894">
        <ele>220.758</ele>
        <time>2020-06-14T11:24:01Z</time>
      </trkpt>
      <trkpt lat="43.7571" lon="1.99919">
        <ele>220.77</ele>
        <time>2020-06-14T11:24:07Z</time>
      </trkpt>
      <trkpt lat="43.75693" lon="1.9994">
        <ele>220.863</ele>
        <time>2020-06-14T11:24:13Z</time>
      </trkpt>
      <trkpt lat="43.75674" lon="1.99967">
        <ele>220.779</ele>
        <time>2020-06-14T11:24:19Z</time>
      </trkpt>
      <trkpt lat="43.75659" lon="1.99989">
        <ele>220.474</ele>
        <time>2020-06-14T11:24:24Z</time>
      </trkpt>
      <trkpt lat="43.75646" lon="2.00015">
        <ele>220.427</ele>
        <time>2020-06-14T11:24:30Z</time>
      </trkpt>
      <trkpt lat="43.75637" lon="2.00035">
        <ele>220.387</ele>
        <time>2020-06-14T11:24:35Z</time>
      </trkpt>
      <trkpt lat="43.75629" lon="2.00063">
        <ele>220.356</ele>
        <time>2020-06-14T11:24:41Z</time>
      </trkpt>
      <trkpt lat="43.75618" lon="2.00092">
        <ele>220.36</ele>
        <time>2020-06-14T11:24:47Z</time>
      </trkpt>
      <trkpt lat="43.75611" lon="2.00111">
        <ele>220.383</ele>
        <time>2020-06-14T11:24:52Z</time>
      </trkpt>
      <trkpt lat="43.756" lon="2.00134">
        <ele>220.429</ele>
        <time>2020-06-14T11:24:58Z</time>
      </trkpt>
      <trkpt lat="43.75592" lon="2.00152">
        <ele>220.448</ele>
        <time>2020-06-14T11:25:03Z</time>
      </trkpt>
      <trkpt lat="43.75581" lon="2.00174">
        <ele>220.491</ele>
        <time>2020-06-14T11:25:09Z</time>
      </trkpt>
      <trkpt lat="43.75571" lon="2.00199">
        <ele>220.574</ele>
        <time>2020-06-14T11:25:15Z</time>
      </trkpt>
      <trkpt lat="43.7556" lon="2.00221">
        <ele>220.651</ele>
        <time>2020-06-14T11:25:21Z</time>
      </trkpt>
      <trkpt lat="43.7555" lon="2.00237">
        <ele>220.734</ele>
        <time>2020-06-14T11:25:26Z</time>
      </trkpt>
      <trkpt lat="43.75542" lon="2.0026">
        <ele>220.828</ele>
        <time>2020-06-14T11:25:32Z</time>
      </trkpt>
      <trkpt lat="43.75537" lon="2.0028">
        <ele>220.913</ele>
        <time>2020-06-14T11:25:38Z</time>
      </trkpt>
      <trkpt lat="43.75534" lon="2.00293">
        <ele>221.004</ele>
        <time>2020-06-14T11:25:44Z</time>
      </trkpt>
      <trkpt lat="43.75533" lon="2.00309">
        <ele>221.102</ele>
        <time>2020-06-14T11:25:50Z</time>
      </trkpt>
      <trkpt lat="43.75531" lon="2.00331">
        <ele>221.208</ele>
        <time>2020-06-14T11:25:56Z</time>
      </trkpt>
      <trkpt lat="43.75528" lon="2.00348">
        <ele>221.308</ele>
        <time>2020-06-14T11:26:01Z</time>
      </trkpt>
      <trkpt lat="43.75527" lon="2.00362">
        <ele>221.416</ele>
        <time>2020-06-14T11:26:06Z</time>
      </trkpt>
      <trkpt lat="43.75526" lon="2.00376">
        <ele>221.544</ele>
        <time>2020-06-14T11:26:12Z</time>
      </trkpt>
      <trkpt lat="43.75525" lon="2.00389">
        <ele>221.689</ele>
        <time>2020-06-14T11:26:18Z</time>
      </trkpt>
      <trkpt lat="43.75523" lon="2.00402">
        <ele>221.831</ele>
        <time>2020-06-14T11:26:23Z</time>
      </trkpt>
      <trkpt lat="43.75522" lon="2.00419">
        <ele>221.998</ele>
        <time>2020-06-14T11:26:29Z</time>
      </trkpt>
      <trkpt lat="43.75519" lon="2.00433">
        <ele>222.169</ele>
        <time>2020-06-14T11:26:34Z</time>
      </trkpt>
      <trkpt lat="43.75516" lon="2.00448">
        <ele>222.457</ele>
        <time>2020-06-14T11:26:40Z</time>
      </trkpt>
      <trkpt lat="43.75511" lon="2.00464">
        <ele>222.767</ele>
        <time>2020-06-14T11:26:46Z</time>
      </trkpt>
      <trkpt lat="43.75506" lon="2.00478">
        <ele>223.07</ele>
        <time>2020-06-14T11:26:52Z</time>
      </trkpt>
      <trkpt lat="43.75503" lon="2.00488">
        <ele>223.326</ele>
        <time>2020-06-14T11:26:57Z</time>
      </trkpt>
      <trkpt lat="43.75498" lon="2.00498">
        <ele>223.569</ele>
        <time>2020-06-14T11:27:02Z</time>
      </trkpt>
      <trkpt lat="43.75491" lon="2.00508">
        <ele>223.845</ele>
        <time>2020-06-14T11:27:08Z</time>
      </trkpt>
      <trkpt lat="43.75482" lon="2.00518">
        <ele>224.076</ele>
        <time>2020-06-14T11:27:13Z</time>
      </trkpt>
      <trkpt lat="43.75476" lon="2.00527">
        <ele>224.351</ele>
        <time>2020-06-14T11:27:19Z</time>
      </trkpt>
      <trkpt lat="43.75469" lon="2.00538">
        <ele>224.63</ele>
        <time>2020-06-14T11:27:25Z</time>
      </trkpt>
      <trkpt lat="43.75463" lon="2.00546">
        <ele>224.862</ele>
        <time>2020-06-14T11:27:30Z</time>
      </trkpt>
      <trkpt lat="43.75457" lon="2.00552">
        <ele>225.094</ele>
        <time>2020-06-14T11:27:35Z</time>
      </trkpt>
      <trkpt lat="43.75454" lon="2.00556">
        <ele>225.38</ele>
        <time>2020-06-14T11:27:41Z</time>
      </trkpt>
      <trkpt lat="43.75446" lon="2.00566">
        <ele>225.661</ele>
        <time>2020-06-14T11:27:47Z</time>
      </trkpt>
      <trkpt lat="43.75442" lon="2.0057">
        <ele>225.902</ele>
        <time>2020-06-14T11:27:52Z</time>
      </trkpt>
      <trkpt lat="43.75431" lon="2.00589">
        <ele>226.195</ele>
        <time>2020-06-14T11:27:58Z</time>
      </trkpt>
      <trkpt lat="43.75423" lon="2.00598">
        <ele>226.451</ele>
        <time>2020-06-14T11:28:03Z</time>
      </trkpt>
      <trkpt lat="43.75418" lon="2.00608">
        <ele>226.758</ele>
        <time>2020-06-14T11:28:09Z</time>
      </trkpt>
      <trkpt lat="43.75411" lon="2.00624">
        <ele>227.01</ele>
        <time>2020-06-14T11:28:14Z</time>
      </trkpt>
      <trkpt lat="43.754" lon="2.00637">
        <ele>227.301</ele>
        <time>2020-06-14T11:28:20Z</time>
      </trkpt>
      <trkpt lat="43.75392" lon="2.00646">
        <ele>227.588</ele>
        <time>2020-06-14T11:28:26Z</time>
      </trkpt>
      <trkpt lat="43.75387" lon="2.00651">
        <ele>227.887</ele>
        <time>2020-06-14T11:28:32Z</time>
      </trkpt>
      <trkpt lat="43.75381" lon="2.00658">
        <ele>228.208</ele>
        <time>2020-06-14T11:28:38Z</time>
      </trkpt>
      <trkpt lat="43.75371" lon="2.00667">
        <ele>228.542</ele>
        <time>2020-06-14T11:28:44Z</time>
      </trkpt>
      <trkpt lat="43.75363" lon="2.00675">
        <ele>228.899</ele>
        <time>2020-06-14T11:28:50Z</time>
      </trkpt>
      <trkpt lat="43.7536" lon="2.00683">
        <ele>229.217</ele>
        <time>2020-06-14T11:28:55Z</time>
      </trkpt>
      <trkpt lat="43.75354" lon="2.00692">
        <ele>229.54</ele>
        <time>2020-06-14T11:29:00Z</time>
      </trkpt>
      <trkpt lat="43.7535" lon="2.00707">
        <ele>229.865</ele>
        <time>2020-06-14T11:29:05Z</time>
      </trkpt>
      <trkpt lat="43.7534" lon="2.00721">
        <ele>230.257</ele>
        <time>2020-06-14T11:29:11Z</time>
      </trkpt>
      <trkpt lat="43.75336" lon="2.00733">
        <ele>230.575</ele>
        <time>2020-06-14T11:29:16Z</time>
      </trkpt>
      <trkpt lat="43.7533" lon="2.00746">
        <ele>230.888</ele>
        <time>2020-06-14T11:29:21Z</time>
      </trkpt>
      <trkpt lat="43.75321" lon="2.00762">
        <ele>231.277</ele>
        <time>2020-06-14T11:29:27Z</time>
      </trkpt>
      <trkpt lat="43.75318" lon="2.00772">
        <ele>231.61</ele>
        <time>2020-06-14T11:29:32Z</time>
      </trkpt>
      <trkpt lat="43.75313" lon="2.00784">
        <ele>231.991</ele>
        <time>2020-06-14T11:29:38Z</time>
      </trkpt>
      <trkpt lat="43.75313" lon="2.00788">
        <ele>232.362</ele>
        <time>2020-06-14T11:29:44Z</time>
      </trkpt>
      <trkpt lat="43.75309" lon="2.00801">
        <ele>232.736</ele>
        <time>2020-06-14T11:29:50Z</time>
      </trkpt>
      <trkpt lat="43.75304" lon="2.00811">
        <ele>233.238</ele>
        <time>2020-06-14T11:29:56Z</time>
      </trkpt>
      <trkpt lat="43.75299" lon="2.00833">
        <ele>233.678</ele>
        <time>2020-06-14T11:30:01Z</time>
      </trkpt>
      <trkpt lat="43.75296" lon="2.00845">
        <ele>234.216</ele>
        <time>2020-06-14T11:30:07Z</time>
      </trkpt>
      <trkpt lat="43.75289" lon="2.00861">
        <ele>234.688</ele>
        <time>2020-06-14T11:30:12Z</time>
      </trkpt>
      <trkpt lat="43.7529" lon="2.00876">
        <ele>235.265</ele>
        <time>2020-06-14T11:30:18Z</time>
      </trkpt>
      <trkpt lat="43.75285" lon="2.00893">
        <ele>235.93</ele>
        <time>2020-06-14T11:30:24Z</time>
      </trkpt>
      <trkpt lat="43.7528" lon="2.00909">
        <ele>236.503</ele>
        <time>2020-06-14T11:30:29Z</time>
      </trkpt>
      <trkpt lat="43.75275" lon="2.00926">
        <ele>237.191</ele>
        <time>2020-06-14T11:30:35Z</time>
      </trkpt>
      <trkpt lat="43.75273" lon="2.00937">
        <ele>237.871</ele>
        <time>2020-06-14T11:30:41Z</time>
      </trkpt>
      <trkpt lat="43.7527" lon="2.00948">
        <ele>238.454</ele>
        <time>2020-06-14T11:30:46Z</time>
      </trkpt>
      <trkpt lat="43.75266" lon="2.00964">
        <ele>239.025</ele>
        <time>2020-06-14T11:30:51Z</time>
      </trkpt>
      <trkpt lat="43.75263" lon="2.00983">
        <ele>239.686</ele>
        <time>2020-06-14T11:30:57Z</time>
      </trkpt>
      <trkpt lat="43.7526" lon="2.01003">
        <ele>240.321</ele>
        <time>2020-06-14T11:31:03Z</time>
      </trkpt>
      <trkpt lat="43.75255" lon="2.01022">
        <ele>240.921</ele>
        <time>2020-06-14T11:31:09Z</time>
      </trkpt>
      <trkpt lat="43.75251" lon="2.0104">
        <ele>241.503</ele>
        <time>2020-06-14T11:31:15Z</time>
      </trkpt>
      <trkpt lat="43.75246" lon="2.01062">
        <ele>242.067</ele>
        <time>2020-06-14T11:31:21Z</time>
      </trkpt>
      <trkpt lat="43.75243" lon="2.01076">
        <ele>242.629</ele>
        <time>2020-06-14T11:31:27Z</time>
      </trkpt>
      <trkpt lat="43.75239" lon="2.01091">
        <ele>243.126</ele>
        <time>2020-06-14T11:31:32Z</time>
      </trkpt>
      <trkpt lat="43.75234" lon="2.01112">
        <ele>243.637</ele>
        <time>2020-06-14T11:31:37Z</time>
      </trkpt>
      <trkpt lat="43.75228" lon="2.01136">
        <ele>244.141</ele>
        <time>2020-06-14T11:31:42Z</time>
      </trkpt>
      <trkpt lat="43.75218" lon="2.0116">
        <ele>244.75</ele>
        <time>2020-06-14T11:31:48Z</time>
      </trkpt>
      <trkpt lat="43.75206" lon="2.0118">
        <ele>245.367</ele>
        <time>2020-06-14T11:31:54Z</time>
      </trkpt>
      <trkpt lat="43.75197" lon="2.012">
        <ele>245.933</ele>
        <time>2020-06-14T11:31:59Z</time>
      </trkpt>
      <trkpt lat="43.75187" lon="2.01218">
        <ele>246.565</ele>
        <time>2020-06-14T11:32:04Z</time>
      </trkpt>
      <trkpt lat="43.75172" lon="2.01242">
        <ele>247.428</ele>
        <time>2020-06-14T11:32:10Z</time>
      </trkpt>
      <trkpt lat="43.75153" lon="2.0127">
        <ele>248.385</ele>
        <time>2020-06-14T11:32:16Z</time>
      </trkpt>
      <trkpt lat="43.75141" lon="2.01288">
        <ele>249.225</ele>
        <time>2020-06-14T11:32:21Z</time>
      </trkpt>
      <trkpt lat="43.75124" lon="2.0131">
        <ele>250.212</ele>
        <time>2020-06-14T11:32:27Z</time>
      </trkpt>
      <trkpt lat="43.7511" lon="2.01325">
        <ele>251.02</ele>
        <time>2020-06-14T11:32:32Z</time>
      </trkpt>
      <trkpt lat="43.75095" lon="2.01341">
        <ele>253.244</ele>
        <time>2020-06-14T11:32:37Z</time>
      </trkpt>
      <trkpt lat="43.75078" lon="2.0136">
        <ele>256.909</ele>
        <time>2020-06-14T11:32:43Z</time>
      </trkpt>
      <trkpt lat="43.75064" lon="2.01377">
        <ele>258.492</ele>
        <time>2020-06-14T11:32:48Z</time>
      </trkpt>
      <trkpt lat="43.7505" lon="2.01392">
        <ele>259.766</ele>
        <time>2020-06-14T11:32:53Z</time>
      </trkpt>
      <trkpt lat="43.75034" lon="2.01412">
        <ele>260.053</ele>
        <time>2020-06-14T11:32:59Z</time>
      </trkpt>
      <trkpt lat="43.75021" lon="2.01428">
        <ele>260.794</ele>
        <time>2020-06-14T11:33:04Z</time>
      </trkpt>
      <trkpt lat="43.75003" lon="2.01447">
        <ele>261.096</ele>
        <time>2020-06-14T11:33:10Z</time>
      </trkpt>
      <trkpt lat="43.74989" lon="2.01463">
        <ele>262.239</ele>
        <time>2020-06-14T11:33:15Z</time>
      </trkpt>
      <trkpt lat="43.74972" lon="2.01484">
        <ele>263.606</ele>
        <time>2020-06-14T11:33:21Z</time>
      </trkpt>
      <trkpt lat="43.74959" lon="2.01501">
        <ele>264.074</ele>
        <time>2020-06-14T11:33:26Z</time>
      </trkpt>
      <trkpt lat="43.74946" lon="2.01517">
        <ele>264.234</ele>
        <time>2020-06-14T11:33:31Z</time>
      </trkpt>
      <trkpt lat="43.74928" lon="2.01536">
        <ele>264.746</ele>
        <time>2020-06-14T11:33:37Z</time>
      </trkpt>
      <trkpt lat="43.74914" lon="2.01553">
        <ele>265.629</ele>
        <time>2020-06-14T11:33:42Z</time>
      </trkpt>
      <trkpt lat="43.74898" lon="2.01572">
        <ele>266.326</ele>
        <time>2020-06-14T11:33:47Z</time>
      </trkpt>
      <trkpt lat="43.74878" lon="2.01595">
        <ele>266.778</ele>
        <time>2020-06-14T11:33:53Z</time>
      </trkpt>
      <trkpt lat="43.74852" lon="2.01622">
        <ele>267.047</ele>
        <time>2020-06-14T11:33:59Z</time>
      </trkpt>
      <trkpt lat="43.74826" lon="2.01653">
        <ele>267.261</ele>
        <time>2020-06-14T11:34:05Z</time>
      </trkpt>
      <trkpt lat="43.74799" lon="2.01684">
        <ele>267.39</ele>
        <time>2020-06-14T11:34:11Z</time>
      </trkpt>
      <trkpt lat="43.74774" lon="2.0171">
        <ele>267.515</ele>
        <time>2020-06-14T11:34:17Z</time>
      </trkpt>
      <trkpt lat="43.74755" lon="2.01733">
        <ele>267.688</ele>
        <time>2020-06-14T11:34:22Z</time>
      </trkpt>
      <trkpt lat="43.74733" lon="2.0176">
        <ele>267.954</ele>
        <time>2020-06-14T11:34:28Z</time>
      </trkpt>
      <trkpt lat="43.74712" lon="2.01785">
        <ele>268.266</ele>
        <time>2020-06-14T11:34:34Z</time>
      </trkpt>
      <trkpt lat="43.74694" lon="2.01805">
        <ele>268.633</ele>
        <time>2020-06-14T11:34:40Z</time>
      </trkpt>
      <trkpt lat="43.74677" lon="2.01828">
        <ele>268.909</ele>
        <time>2020-06-14T11:34:46Z</time>
      </trkpt>
      <trkpt lat="43.74661" lon="2.01848">
        <ele>269.041</ele>
        <time>2020-06-14T11:34:52Z</time>
      </trkpt>
      <trkpt lat="43.74649" lon="2.01863">
        <ele>269.113</ele>
        <time>2020-06-14T11:34:57Z</time>
      </trkpt>
      <trkpt lat="43.74635" lon="2.01879">
        <ele>269.23</ele>
        <time>2020-06-14T11:35:03Z</time>
      </trkpt>
      <trkpt lat="43.74625" lon="2.0189">
        <ele>269.354</ele>
        <time>2020-06-14T11:35:08Z</time>
      </trkpt>
      <trkpt lat="43.74614" lon="2.019">
        <ele>269.489</ele>
        <time>2020-06-14T11:35:13Z</time>
      </trkpt>
      <trkpt lat="43.74602" lon="2.01916">
        <ele>269.674</ele>
        <time>2020-06-14T11:35:19Z</time>
      </trkpt>
      <trkpt lat="43.74589" lon="2.01929">
        <ele>269.878</ele>
        <time>2020-06-14T11:35:25Z</time>
      </trkpt>
      <trkpt lat="43.7458" lon="2.01941">
        <ele>270.035</ele>
        <time>2020-06-14T11:35:30Z</time>
      </trkpt>
      <trkpt lat="43.74569" lon="2.01953">
        <ele>270.213</ele>
        <time>2020-06-14T11:35:36Z</time>
      </trkpt>
      <trkpt lat="43.74557" lon="2.01968">
        <ele>270.388</ele>
        <time>2020-06-14T11:35:42Z</time>
      </trkpt>
      <trkpt lat="43.74547" lon="2.01981">
        <ele>270.557</ele>
        <time>2020-06-14T11:35:48Z</time>
      </trkpt>
      <trkpt lat="43.74539" lon="2.01986">
        <ele>270.711</ele>
        <time>2020-06-14T11:35:53Z</time>
      </trkpt>
      <trkpt lat="43.74528" lon="2.01995">
        <ele>270.874</ele>
        <time>2020-06-14T11:35:58Z</time>
      </trkpt>
      <trkpt lat="43.74518" lon="2.02003">
        <ele>271.075</ele>
        <time>2020-06-14T11:36:04Z</time>
      </trkpt>
      <trkpt lat="43.74508" lon="2.02016">
        <ele>271.279</ele>
        <time>2020-06-14T11:36:10Z</time>
      </trkpt>
      <trkpt lat="43.74499" lon="2.0203">
        <ele>271.486</ele>
        <time>2020-06-14T11:36:16Z</time>
      </trkpt>
      <trkpt lat="43.74493" lon="2.02041">
        <ele>271.665</ele>
        <time>2020-06-14T11:36:21Z</time>
      </trkpt>
      <trkpt lat="43.74483" lon="2.02055">
        <ele>271.896</ele>
        <time>2020-06-14T11:36:27Z</time>
      </trkpt>
      <trkpt lat="43.74475" lon="2.02066">
        <ele>272.078</ele>
        <time>2020-06-14T11:36:32Z</time>
      </trkpt>
      <trkpt lat="43.74465" lon="2.02078">
        <ele>272.285</ele>
        <time>2020-06-14T11:36:38Z</time>
      </trkpt>
      <trkpt lat="43.74458" lon="2.02086">
        <ele>272.452</ele>
        <time>2020-06-14T11:36:43Z</time>
      </trkpt>
      <trkpt lat="43.74449" lon="2.02098">
        <ele>272.647</ele>
        <time>2020-06-14T11:36:49Z</time>
      </trkpt>
      <trkpt lat="43.74441" lon="2.02107">
        <ele>272.818</ele>
        <time>2020-06-14T11:36:54Z</time>
      </trkpt>
      <trkpt lat="43.7443" lon="2.02118">
        <ele>273.029</ele>
        <time>2020-06-14T11:37:00Z</time>
      </trkpt>
      <trkpt lat="43.74421" lon="2.02129">
        <ele>273.226</ele>
        <time>2020-06-14T11:37:06Z</time>
      </trkpt>
      <trkpt lat="43.74412" lon="2.02142">
        <ele>273.376</ele>
        <time>2020-06-14T11:37:11Z</time>
      </trkpt>
      <trkpt lat="43.744" lon="2.02158">
        <ele>273.542</ele>
        <time>2020-06-14T11:37:17Z</time>
      </trkpt>
      <trkpt lat="43.74388" lon="2.02171">
        <ele>273.701</ele>
        <time>2020-06-14T11:37:23Z</time>
      </trkpt>
      <trkpt lat="43.74378" lon="2.02186">
        <ele>273.858</ele>
        <time>2020-06-14T11:37:29Z</time>
      </trkpt>
      <trkpt lat="43.74366" lon="2.02201">
        <ele>274.011</ele>
        <time>2020-06-14T11:37:35Z</time>
      </trkpt>
      <trkpt lat="43.74353" lon="2.02214">
        <ele>274.155</ele>
        <time>2020-06-14T11:37:41Z</time>
      </trkpt>
      <trkpt lat="43.74338" lon="2.02229">
        <ele>274.293</ele>
        <time>2020-06-14T11:37:47Z</time>
      </trkpt>
      <trkpt lat="43.74324" lon="2.02245">
        <ele>274.422</ele>
        <time>2020-06-14T11:37:53Z</time>
      </trkpt>
      <trkpt lat="43.7431" lon="2.02262">
        <ele>274.57</ele>
        <time>2020-06-14T11:37:59Z</time>
      </trkpt>
      <trkpt lat="43.74298" lon="2.02275">
        <ele>274.695</ele>
        <time>2020-06-14T11:38:04Z</time>
      </trkpt>
      <trkpt lat="43.74286" lon="2.02291">
        <ele>274.832</ele>
        <time>2020-06-14T11:38:09Z</time>
      </trkpt>
      <trkpt lat="43.74271" lon="2.0231">
        <ele>275.004</ele>
        <time>2020-06-14T11:38:15Z</time>
      </trkpt>
      <trkpt lat="43.74257" lon="2.02328">
        <ele>275.143</ele>
        <time>2020-06-14T11:38:20Z</time>
      </trkpt>
      <trkpt lat="43.74241" lon="2.02344">
        <ele>275.28</ele>
        <time>2020-06-14T11:38:25Z</time>
      </trkpt>
      <trkpt lat="43.74224" lon="2.02364">
        <ele>276.008</ele>
        <time>2020-06-14T11:38:31Z</time>
      </trkpt>
      <trkpt lat="43.74206" lon="2.02384">
        <ele>276.22</ele>
        <time>2020-06-14T11:38:37Z</time>
      </trkpt>
      <trkpt lat="43.7419" lon="2.02405">
        <ele>276.679</ele>
        <time>2020-06-14T11:38:43Z</time>
      </trkpt>
      <trkpt lat="43.74176" lon="2.02422">
        <ele>276.885</ele>
        <time>2020-06-14T11:38:48Z</time>
      </trkpt>
      <trkpt lat="43.7416" lon="2.02443">
        <ele>276.921</ele>
        <time>2020-06-14T11:38:54Z</time>
      </trkpt>
      <trkpt lat="43.74146" lon="2.02461">
        <ele>276.967</ele>
        <time>2020-06-14T11:39:00Z</time>
      </trkpt>
      <trkpt lat="43.74133" lon="2.02474">
        <ele>277.015</ele>
        <time>2020-06-14T11:39:05Z</time>
      </trkpt>
      <trkpt lat="43.74119" lon="2.02491">
        <ele>277.083</ele>
        <time>2020-06-14T11:39:11Z</time>
      </trkpt>
      <trkpt lat="43.74107" lon="2.02503">
        <ele>277.148</ele>
        <time>2020-06-14T11:39:16Z</time>
      </trkpt>
      <trkpt lat="43.74097" lon="2.02517">
        <ele>277.233</ele>
        <time>2020-06-14T11:39:22Z</time>
      </trkpt>
      <trkpt lat="43.74085" lon="2.0253">
        <ele>277.31</ele>
        <time>2020-06-14T11:39:27Z</time>
      </trkpt>
      <trkpt lat="43.74075" lon="2.02543">
        <ele>277.393</ele>
        <time>2020-06-14T11:39:32Z</time>
      </trkpt>
      <trkpt lat="43.74066" lon="2.02555">
        <ele>277.483</ele>
        <time>2020-06-14T11:39:37Z</time>
      </trkpt>
      <trkpt lat="43.74055" lon="2.02571">
        <ele>277.594</ele>
        <time>2020-06-14T11:39:43Z</time>
      </trkpt>
      <trkpt lat="43.74046" lon="2.02582">
        <ele>277.688</ele>
        <time>2020-06-14T11:39:48Z</time>
      </trkpt>
      <trkpt lat="43.74037" lon="2.02596">
        <ele>277.779</ele>
        <time>2020-06-14T11:39:53Z</time>
      </trkpt>
      <trkpt lat="43.74027" lon="2.02607">
        <ele>277.891</ele>
        <time>2020-06-14T11:39:59Z</time>
      </trkpt>
      <trkpt lat="43.74014" lon="2.02618">
        <ele>278.011</ele>
        <time>2020-06-14T11:40:05Z</time>
      </trkpt>
      <trkpt lat="43.74005" lon="2.02627">
        <ele>278.117</ele>
        <time>2020-06-14T11:40:10Z</time>
      </trkpt>
      <trkpt lat="43.73997" lon="2.02637">
        <ele>278.248</ele>
        <time>2020-06-14T11:40:16Z</time>
      </trkpt>
      <trkpt lat="43.73986" lon="2.02637">
        <ele>278.359</ele>
        <time>2020-06-14T11:40:21Z</time>
      </trkpt>
      <trkpt lat="43.73975" lon="2.02625">
        <ele>278.501</ele>
        <time>2020-06-14T11:40:27Z</time>
      </trkpt>
      <trkpt lat="43.73966" lon="2.02616">
        <ele>278.624</ele>
        <time>2020-06-14T11:40:32Z</time>
      </trkpt>
      <trkpt lat="43.73951" lon="2.02602">
        <ele>278.786</ele>
        <time>2020-06-14T11:40:38Z</time>
      </trkpt>
      <trkpt lat="43.73939" lon="2.02591">
        <ele>278.97</ele>
        <time>2020-06-14T11:40:44Z</time>
      </trkpt>
      <trkpt lat="43.73929" lon="2.02583">
        <ele>279.136</ele>
        <time>2020-06-14T11:40:49Z</time>
      </trkpt>
      <trkpt lat="43.73919" lon="2.02573">
        <ele>279.315</ele>
        <time>2020-06-14T11:40:54Z</time>
      </trkpt>
      <trkpt lat="43.73908" lon="2.02564">
        <ele>279.548</ele>
        <time>2020-06-14T11:41:00Z</time>
      </trkpt>
      <trkpt lat="43.73899" lon="2.02557">
        <ele>279.808</ele>
        <time>2020-06-14T11:41:06Z</time>
      </trkpt>
      <trkpt lat="43.73891" lon="2.02553">
        <ele>280.099</ele>
        <time>2020-06-14T11:41:12Z</time>
      </trkpt>
      <trkpt lat="43.7389" lon="2.02552">
        <ele>280.346</ele>
        <time>2020-06-14T11:41:17Z</time>
      </trkpt>
      <trkpt lat="43.73888" lon="2.02549">
        <ele>280.381</ele>
        <time>2020-06-14T11:41:23Z</time>
      </trkpt>
      <trkpt lat="43.73888" lon="2.02546">
        <ele>280.508</ele>
        <time>2020-06-14T11:41:30Z</time>
      </trkpt>
      <trkpt lat="43.73888" lon="2.02545">
        <ele>280.557</ele>
        <time>2020-06-14T11:41:35Z</time>
      </trkpt>
      <trkpt lat="43.73889" lon="2.02543">
        <ele>280.62</ele>
        <time>2020-06-14T11:41:41Z</time>
      </trkpt>
      <trkpt lat="43.73889" lon="2.02543">
        <ele>280.688</ele>
        <time>2020-06-14T11:41:47Z</time>
      </trkpt>
      <trkpt lat="43.73891" lon="2.02544">
        <ele>281.266</ele>
        <time>2020-06-14T11:41:53Z</time>
      </trkpt>
      <trkpt lat="43.73897" lon="2.0255">
        <ele>281.415</ele>
        <time>2020-06-14T11:41:58Z</time>
      </trkpt>
      <trkpt lat="43.73897" lon="2.0255">
        <ele>281.572</ele>
        <time>2020-06-14T11:42:04Z</time>
      </trkpt>
      <trkpt lat="43.73898" lon="2.0255">
        <ele>281.625</ele>
        <time>2020-06-14T11:42:09Z</time>
      </trkpt>
      <trkpt lat="43.73898" lon="2.0255">
        <ele>281.694</ele>
        <time>2020-06-14T11:42:15Z</time>
      </trkpt>
      <trkpt lat="43.73898" lon="2.02549">
        <ele>281.767</ele>
        <time>2020-06-14T11:42:21Z</time>
      </trkpt>
      <trkpt lat="43.73901" lon="2.02547">
        <ele>281.83</ele>
        <time>2020-06-14T11:42:26Z</time>
      </trkpt>
      <trkpt lat="43.73901" lon="2.02547">
        <ele>281.91</ele>
        <time>2020-06-14T11:42:32Z</time>
      </trkpt>
      <trkpt lat="43.73901" lon="2.02547">
        <ele>281.979</ele>
        <time>2020-06-14T11:42:37Z</time>
      </trkpt>
      <trkpt lat="43.73901" lon="2.02547">
        <ele>282.067</ele>
        <time>2020-06-14T11:42:43Z</time>
      </trkpt>
      <trkpt lat="43.73901" lon="2.02546">
        <ele>282.161</ele>
        <time>2020-06-14T11:42:49Z</time>
      </trkpt>
      <trkpt lat="43.73901" lon="2.02546">
        <ele>282.243</ele>
        <time>2020-06-14T11:42:54Z</time>
      </trkpt>
      <trkpt lat="43.73894" lon="2.02539">
        <ele>283.062</ele>
        <time>2020-06-14T11:43:00Z</time>
      </trkpt>
      <trkpt lat="43.7388" lon="2.02526">
        <ele>283.942</ele>
        <time>2020-06-14T11:43:06Z</time>
      </trkpt>
      <trkpt lat="43.73857" lon="2.02518">
        <ele>286.881</ele>
        <time>2020-06-14T11:43:12Z</time>
      </trkpt>
      <trkpt lat="43.73814" lon="2.02506">
        <ele>289.805</ele>
        <time>2020-06-14T11:43:17Z</time>
      </trkpt>
      <trkpt lat="43.73755" lon="2.02495">
        <ele>290.88</ele>
        <time>2020-06-14T11:43:23Z</time>
      </trkpt>
      <trkpt lat="43.73718" lon="2.02513">
        <ele>292.999</ele>
        <time>2020-06-14T11:43:28Z</time>
      </trkpt>
      <trkpt lat="43.7368" lon="2.02544">
        <ele>297.294</ele>
        <time>2020-06-14T11:43:34Z</time>
      </trkpt>
      <trkpt lat="43.73655" lon="2.02563">
        <ele>299.894</ele>
        <time>2020-06-14T11:43:39Z</time>
      </trkpt>
      <trkpt lat="43.7363" lon="2.02574">
        <ele>301.652</ele>
        <time>2020-06-14T11:43:45Z</time>
      </trkpt>
      <trkpt lat="43.73612" lon="2.02581">
        <ele>301.932</ele>
        <time>2020-06-14T11:43:50Z</time>
      </trkpt>
      <trkpt lat="43.73592" lon="2.02593">
        <ele>303.09</ele>
        <time>2020-06-14T11:43:56Z</time>
      </trkpt>
      <trkpt lat="43.73586" lon="2.02599">
        <ele>303.413</ele>
        <time>2020-06-14T11:44:01Z</time>
      </trkpt>
      <trkpt lat="43.73551" lon="2.02619">
        <ele>304.018</ele>
        <time>2020-06-14T11:44:07Z</time>
      </trkpt>
      <trkpt lat="43.73519" lon="2.02633">
        <ele>304.646</ele>
        <time>2020-06-14T11:44:12Z</time>
      </trkpt>
      <trkpt lat="43.73489" lon="2.02651">
        <ele>305.767</ele>
        <time>2020-06-14T11:44:18Z</time>
      </trkpt>
      <trkpt lat="43.73458" lon="2.0266">
        <ele>306.712</ele>
        <time>2020-06-14T11:44:24Z</time>
      </trkpt>
      <trkpt lat="43.73426" lon="2.02666">
        <ele>307.366</ele>
        <time>2020-06-14T11:44:30Z</time>
      </trkpt>
      <trkpt lat="43.73396" lon="2.02665">
        <ele>308.392</ele>
        <time>2020-06-14T11:44:36Z</time>
      </trkpt>
      <trkpt lat="43.73366" lon="2.02655">
        <ele>309.05</ele>
        <time>2020-06-14T11:44:42Z</time>
      </trkpt>
      <trkpt lat="43.73345" lon="2.02653">
        <ele>309.265</ele>
        <time>2020-06-14T11:44:47Z</time>
      </trkpt>
      <trkpt lat="43.73332" lon="2.02655">
        <ele>309.346</ele>
        <time>2020-06-14T11:44:53Z</time>
      </trkpt>
      <trkpt lat="43.73324" lon="2.02658">
        <ele>309.488</ele>
        <time>2020-06-14T11:44:59Z</time>
      </trkpt>
      <trkpt lat="43.7331" lon="2.02657">
        <ele>309.641</ele>
        <time>2020-06-14T11:45:04Z</time>
      </trkpt>
      <trkpt lat="43.73303" lon="2.02666">
        <ele>309.831</ele>
        <time>2020-06-14T11:45:10Z</time>
      </trkpt>
      <trkpt lat="43.73293" lon="2.02674">
        <ele>310.016</ele>
        <time>2020-06-14T11:45:16Z</time>
      </trkpt>
      <trkpt lat="43.73281" lon="2.02682">
        <ele>310.226</ele>
        <time>2020-06-14T11:45:22Z</time>
      </trkpt>
      <trkpt lat="43.73272" lon="2.02685">
        <ele>310.415</ele>
        <time>2020-06-14T11:45:27Z</time>
      </trkpt>
      <trkpt lat="43.73262" lon="2.02691">
        <ele>310.646</ele>
        <time>2020-06-14T11:45:33Z</time>
      </trkpt>
      <trkpt lat="43.73256" lon="2.02697">
        <ele>310.839</ele>
        <time>2020-06-14T11:45:38Z</time>
      </trkpt>
      <trkpt lat="43.73247" lon="2.02707">
        <ele>311.092</ele>
        <time>2020-06-14T11:45:44Z</time>
      </trkpt>
      <trkpt lat="43.7324" lon="2.02713">
        <ele>311.367</ele>
        <time>2020-06-14T11:45:50Z</time>
      </trkpt>
      <trkpt lat="43.73234" lon="2.02718">
        <ele>311.597</ele>
        <time>2020-06-14T11:45:55Z</time>
      </trkpt>
      <trkpt lat="43.73228" lon="2.02729">
        <ele>311.868</ele>
        <time>2020-06-14T11:46:01Z</time>
      </trkpt>
      <trkpt lat="43.73223" lon="2.02731">
        <ele>312.091</ele>
        <time>2020-06-14T11:46:06Z</time>
      </trkpt>
      <trkpt lat="43.73214" lon="2.02743">
        <ele>312.346</ele>
        <time>2020-06-14T11:46:12Z</time>
      </trkpt>
      <trkpt lat="43.73204" lon="2.02752">
        <ele>312.581</ele>
        <time>2020-06-14T11:46:18Z</time>
      </trkpt>
      <trkpt lat="43.73196" lon="2.02759">
        <ele>312.771</ele>
        <time>2020-06-14T11:46:23Z</time>
      </trkpt>
      <trkpt lat="43.73188" lon="2.02759">
        <ele>312.973</ele>
        <time>2020-06-14T11:46:28Z</time>
      </trkpt>
      <trkpt lat="43.7318" lon="2.02764">
        <ele>313.177</ele>
        <time>2020-06-14T11:46:33Z</time>
      </trkpt>
      <trkpt lat="43.73169" lon="2.02762">
        <ele>313.421</ele>
        <time>2020-06-14T11:46:39Z</time>
      </trkpt>
      <trkpt lat="43.73157" lon="2.02763">
        <ele>313.63</ele>
        <time>2020-06-14T11:46:44Z</time>
      </trkpt>
      <trkpt lat="43.73139" lon="2.02762">
        <ele>313.879</ele>
        <time>2020-06-14T11:46:50Z</time>
      </trkpt>
      <trkpt lat="43.73122" lon="2.02757">
        <ele>314.112</ele>
        <time>2020-06-14T11:46:56Z</time>
      </trkpt>
      <trkpt lat="43.73103" lon="2.02754">
        <ele>314.311</ele>
        <time>2020-06-14T11:47:02Z</time>
      </trkpt>
      <trkpt lat="43.73086" lon="2.02756">
        <ele>314.448</ele>
        <time>2020-06-14T11:47:07Z</time>
      </trkpt>
      <trkpt lat="43.73068" lon="2.02761">
        <ele>314.591</ele>
        <time>2020-06-14T11:47:13Z</time>
      </trkpt>
      <trkpt lat="43.7305" lon="2.0277">
        <ele>314.704</ele>
        <time>2020-06-14T11:47:19Z</time>
      </trkpt>
      <trkpt lat="43.73038" lon="2.02781">
        <ele>314.775</ele>
        <time>2020-06-14T11:47:24Z</time>
      </trkpt>
      <trkpt lat="43.73026" lon="2.02792">
        <ele>314.831</ele>
        <time>2020-06-14T11:47:29Z</time>
      </trkpt>
      <trkpt lat="43.7301" lon="2.02803">
        <ele>314.889</ele>
        <time>2020-06-14T11:47:35Z</time>
      </trkpt>
      <trkpt lat="43.72993" lon="2.02814">
        <ele>314.931</ele>
        <time>2020-06-14T11:47:41Z</time>
      </trkpt>
      <trkpt lat="43.72981" lon="2.02824">
        <ele>314.965</ele>
        <time>2020-06-14T11:47:46Z</time>
      </trkpt>
      <trkpt lat="43.72967" lon="2.02835">
        <ele>315.006</ele>
        <time>2020-06-14T11:47:52Z</time>
      </trkpt>
      <trkpt lat="43.72954" lon="2.02846">
        <ele>315.044</ele>
        <time>2020-06-14T11:47:58Z</time>
      </trkpt>
      <trkpt lat="43.72945" lon="2.02853">
        <ele>315.072</ele>
        <time>2020-06-14T11:48:03Z</time>
      </trkpt>
      <trkpt lat="43.72936" lon="2.0286">
        <ele>315.098</ele>
        <time>2020-06-14T11:48:08Z</time>
      </trkpt>
      <trkpt lat="43.72926" lon="2.02867">
        <ele>315.125</ele>
        <time>2020-06-14T11:48:14Z</time>
      </trkpt>
      <trkpt lat="43.72919" lon="2.02875">
        <ele>315.153</ele>
        <time>2020-06-14T11:48:20Z</time>
      </trkpt>
      <trkpt lat="43.7291" lon="2.02881">
        <ele>315.171</ele>
        <time>2020-06-14T11:48:25Z</time>
      </trkpt>
      <trkpt lat="43.72905" lon="2.0289">
        <ele>315.18</ele>
        <time>2020-06-14T11:48:31Z</time>
      </trkpt>
      <trkpt lat="43.72899" lon="2.02897">
        <ele>315.173</ele>
        <time>2020-06-14T11:48:36Z</time>
      </trkpt>
      <trkpt lat="43.72892" lon="2.02904">
        <ele>315.154</ele>
        <time>2020-06-14T11:48:42Z</time>
      </trkpt>
      <trkpt lat="43.72887" lon="2.02908">
        <ele>315.133</ele>
        <time>2020-06-14T11:48:48Z</time>
      </trkpt>
      <trkpt lat="43.7288" lon="2.02911">
        <ele>315.114</ele>
        <time>2020-06-14T11:48:54Z</time>
      </trkpt>
      <trkpt lat="43.72876" lon="2.02915">
        <ele>315.099</ele>
        <time>2020-06-14T11:48:59Z</time>
      </trkpt>
      <trkpt lat="43.72872" lon="2.02921">
        <ele>315.087</ele>
        <time>2020-06-14T11:49:04Z</time>
      </trkpt>
      <trkpt lat="43.72866" lon="2.02927">
        <ele>315.079</ele>
        <time>2020-06-14T11:49:10Z</time>
      </trkpt>
      <trkpt lat="43.72859" lon="2.02935">
        <ele>315.083</ele>
        <time>2020-06-14T11:49:16Z</time>
      </trkpt>
      <trkpt lat="43.72849" lon="2.02937">
        <ele>315.098</ele>
        <time>2020-06-14T11:49:22Z</time>
      </trkpt>
      <trkpt lat="43.72839" lon="2.02936">
        <ele>315.115</ele>
        <time>2020-06-14T11:49:27Z</time>
      </trkpt>
      <trkpt lat="43.72835" lon="2.02939">
        <ele>315.159</ele>
        <time>2020-06-14T11:49:32Z</time>
      </trkpt>
      <trkpt lat="43.72829" lon="2.02943">
        <ele>315.251</ele>
        <time>2020-06-14T11:49:38Z</time>
      </trkpt>
      <trkpt lat="43.72833" lon="2.0294">
        <ele>315.263</ele>
        <time>2020-06-14T11:49:43Z</time>
      </trkpt>
      <trkpt lat="43.72833" lon="2.0294">
        <ele>315.282</ele>
        <time>2020-06-14T11:49:49Z</time>
      </trkpt>
      <trkpt lat="43.72833" lon="2.02939">
        <ele>315.306</ele>
        <time>2020-06-14T11:49:55Z</time>
      </trkpt>
      <trkpt lat="43.72833" lon="2.02939">
        <ele>315.33</ele>
        <time>2020-06-14T11:50:01Z</time>
      </trkpt>
      <trkpt lat="43.72834" lon="2.02938">
        <ele>315.356</ele>
        <time>2020-06-14T11:50:06Z</time>
      </trkpt>
      <trkpt lat="43.72834" lon="2.02937">
        <ele>315.393</ele>
        <time>2020-06-14T11:50:12Z</time>
      </trkpt>
      <trkpt lat="43.72834" lon="2.02937">
        <ele>315.434</ele>
        <time>2020-06-14T11:50:18Z</time>
      </trkpt>
      <trkpt lat="43.72835" lon="2.02937">
        <ele>315.469</ele>
        <time>2020-06-14T11:50:23Z</time>
      </trkpt>
      <trkpt lat="43.72835" lon="2.02937">
        <ele>315.514</ele>
        <time>2020-06-14T11:50:29Z</time>
      </trkpt>
      <trkpt lat="43.72835" lon="2.02937">
        <ele>315.554</ele>
        <time>2020-06-14T11:50:34Z</time>
      </trkpt>
      <trkpt lat="43.72835" lon="2.02936">
        <ele>315.605</ele>
        <time>2020-06-14T11:50:40Z</time>
      </trkpt>
      <trkpt lat="43.72835" lon="2.02936">
        <ele>315.658</ele>
        <time>2020-06-14T11:50:46Z</time>
      </trkpt>
      <trkpt lat="43.72835" lon="2.02936">
        <ele>315.705</ele>
        <time>2020-06-14T11:50:51Z</time>
      </trkpt>
      <trkpt lat="43.72835" lon="2.02936">
        <ele>315.761</ele>
        <time>2020-06-14T11:50:57Z</time>
      </trkpt>
      <trkpt lat="43.72835" lon="2.02936">
        <ele>315.808</ele>
        <time>2020-06-14T11:51:02Z</time>
      </trkpt>
      <trkpt lat="43.72835" lon="2.02935">
        <ele>315.856</ele>
        <time>2020-06-14T11:51:07Z</time>
      </trkpt>
      <trkpt lat="43.72835" lon="2.02935">
        <ele>315.915</ele>
        <time>2020-06-14T11:51:13Z</time>
      </trkpt>
      <trkpt lat="43.72835" lon="2.02935">
        <ele>315.966</ele>
        <time>2020-06-14T11:51:18Z</time>
      </trkpt>
      <trkpt lat="43.72835" lon="2.02935">
        <ele>316.029</ele>
        <time>2020-06-14T11:51:24Z</time>
      </trkpt>
      <trkpt lat="43.72835" lon="2.02935">
        <ele>316.084</ele>
        <time>2020-06-14T11:51:29Z</time>
      </trkpt>
      <trkpt lat="43.72835" lon="2.02934">
        <ele>316.256</ele>
        <time>2020-06-14T11:51:35Z</time>
      </trkpt>
      <trkpt lat="43.72833" lon="2.02934">
        <ele>316.807</ele>
        <time>2020-06-14T11:51:40Z</time>
      </trkpt>
      <trkpt lat="43.7282" lon="2.02929">
        <ele>317.432</ele>
        <time>2020-06-14T11:51:46Z</time>
      </trkpt>
      <trkpt lat="43.72799" lon="2.02926">
        <ele>318.068</ele>
        <time>2020-06-14T11:51:52Z</time>
      </trkpt>
      <trkpt lat="43.7278" lon="2.02928">
        <ele>318.785</ele>
        <time>2020-06-14T11:51:58Z</time>
      </trkpt>
      <trkpt lat="43.72762" lon="2.02933">
        <ele>319.717</ele>
        <time>2020-06-14T11:52:04Z</time>
      </trkpt>
      <trkpt lat="43.72744" lon="2.0294">
        <ele>320.68</ele>
        <time>2020-06-14T11:52:10Z</time>
      </trkpt>
      <trkpt lat="43.72727" lon="2.0295">
        <ele>321.444</ele>
        <time>2020-06-14T11:52:15Z</time>
      </trkpt>
      <trkpt lat="43.7271" lon="2.02959">
        <ele>322.344</ele>
        <time>2020-06-14T11:52:21Z</time>
      </trkpt>
      <trkpt lat="43.72693" lon="2.02973">
        <ele>323.179</ele>
        <time>2020-06-14T11:52:27Z</time>
      </trkpt>
      <trkpt lat="43.72675" lon="2.02984">
        <ele>323.836</ele>
        <time>2020-06-14T11:52:32Z</time>
      </trkpt>
      <trkpt lat="43.72657" lon="2.02995">
        <ele>324.611</ele>
        <time>2020-06-14T11:52:38Z</time>
      </trkpt>
      <trkpt lat="43.72638" lon="2.0301">
        <ele>325.358</ele>
        <time>2020-06-14T11:52:44Z</time>
      </trkpt>
      <trkpt lat="43.72619" lon="2.03018">
        <ele>326.094</ele>
        <time>2020-06-14T11:52:50Z</time>
      </trkpt>
      <trkpt lat="43.72605" lon="2.03026">
        <ele>326.814</ele>
        <time>2020-06-14T11:52:56Z</time>
      </trkpt>
      <trkpt lat="43.72596" lon="2.0303">
        <ele>327.383</ele>
        <time>2020-06-14T11:53:01Z</time>
      </trkpt>
      <trkpt lat="43.72588" lon="2.03036">
        <ele>328.058</ele>
        <time>2020-06-14T11:53:07Z</time>
      </trkpt>
      <trkpt lat="43.72574" lon="2.03037">
        <ele>328.747</ele>
        <time>2020-06-14T11:53:13Z</time>
      </trkpt>
      <trkpt lat="43.72562" lon="2.03038">
        <ele>329.448</ele>
        <time>2020-06-14T11:53:19Z</time>
      </trkpt>
      <trkpt lat="43.72553" lon="2.03048">
        <ele>330.124</ele>
        <time>2020-06-14T11:53:25Z</time>
      </trkpt>
      <trkpt lat="43.72552" lon="2.03049">
        <ele>330.503</ele>
        <time>2020-06-14T11:53:31Z</time>
      </trkpt>
      <trkpt lat="43.72551" lon="2.03049">
        <ele>330.564</ele>
        <time>2020-06-14T11:53:36Z</time>
      </trkpt>
      <trkpt lat="43.72551" lon="2.03049">
        <ele>330.761</ele>
        <time>2020-06-14T11:53:42Z</time>
      </trkpt>
      <trkpt lat="43.72548" lon="2.03051">
        <ele>331.46</ele>
        <time>2020-06-14T11:53:48Z</time>
      </trkpt>
      <trkpt lat="43.72548" lon="2.03052">
        <ele>331.797</ele>
        <time>2020-06-14T11:53:54Z</time>
      </trkpt>
      <trkpt lat="43.72544" lon="2.0305">
        <ele>332.511</ele>
        <time>2020-06-14T11:53:59Z</time>
      </trkpt>
      <trkpt lat="43.72537" lon="2.03054">
        <ele>333.346</ele>
        <time>2020-06-14T11:54:05Z</time>
      </trkpt>
      <trkpt lat="43.7253" lon="2.03059">
        <ele>334.006</ele>
        <time>2020-06-14T11:54:10Z</time>
      </trkpt>
      <trkpt lat="43.72519" lon="2.03066">
        <ele>334.766</ele>
        <time>2020-06-14T11:54:16Z</time>
      </trkpt>
      <trkpt lat="43.72509" lon="2.03068">
        <ele>335.5</ele>
        <time>2020-06-14T11:54:22Z</time>
      </trkpt>
      <trkpt lat="43.72498" lon="2.03069">
        <ele>336.081</ele>
        <time>2020-06-14T11:54:27Z</time>
      </trkpt>
      <trkpt lat="43.72488" lon="2.03072">
        <ele>336.746</ele>
        <time>2020-06-14T11:54:33Z</time>
      </trkpt>
      <trkpt lat="43.72481" lon="2.03073">
        <ele>337.274</ele>
        <time>2020-06-14T11:54:38Z</time>
      </trkpt>
      <trkpt lat="43.72471" lon="2.03076">
        <ele>337.888</ele>
        <time>2020-06-14T11:54:44Z</time>
      </trkpt>
      <trkpt lat="43.72464" lon="2.03071">
        <ele>338.495</ele>
        <time>2020-06-14T11:54:50Z</time>
      </trkpt>
      <trkpt lat="43.72442" lon="2.03056">
        <ele>341.37</ele>
        <time>2020-06-14T11:54:56Z</time>
      </trkpt>
      <trkpt lat="43.72409" lon="2.03043">
        <ele>343.771</ele>
        <time>2020-06-14T11:55:02Z</time>
      </trkpt>
      <trkpt lat="43.72378" lon="2.03033">
        <ele>344.805</ele>
        <time>2020-06-14T11:55:07Z</time>
      </trkpt>
      <trkpt lat="43.72345" lon="2.03025">
        <ele>345.426</ele>
        <time>2020-06-14T11:55:13Z</time>
      </trkpt>
      <trkpt lat="43.72308" lon="2.03016">
        <ele>345.708</ele>
        <time>2020-06-14T11:55:19Z</time>
      </trkpt>
      <trkpt lat="43.72272" lon="2.03001">
        <ele>345.97</ele>
        <time>2020-06-14T11:55:24Z</time>
      </trkpt>
      <trkpt lat="43.72232" lon="2.03001">
        <ele>347.098</ele>
        <time>2020-06-14T11:55:30Z</time>
      </trkpt>
      <trkpt lat="43.72202" lon="2.03015">
        <ele>348.97</ele>
        <time>2020-06-14T11:55:36Z</time>
      </trkpt>
      <trkpt lat="43.72182" lon="2.03031">
        <ele>350.686</ele>
        <time>2020-06-14T11:55:41Z</time>
      </trkpt>
      <trkpt lat="43.7217" lon="2.03062">
        <ele>352.99</ele>
        <time>2020-06-14T11:55:47Z</time>
      </trkpt>
      <trkpt lat="43.72161" lon="2.03091">
        <ele>355.078</ele>
        <time>2020-06-14T11:55:52Z</time>
      </trkpt>
      <trkpt lat="43.72132" lon="2.0311">
        <ele>355.959</ele>
        <time>2020-06-14T11:55:58Z</time>
      </trkpt>
      <trkpt lat="43.72097" lon="2.031">
        <ele>356.973</ele>
        <time>2020-06-14T11:56:03Z</time>
      </trkpt>
      <trkpt lat="43.7207" lon="2.03085">
        <ele>358.41</ele>
        <time>2020-06-14T11:56:09Z</time>
      </trkpt>
      <trkpt lat="43.72045" lon="2.03065">
        <ele>359.689</ele>
        <time>2020-06-14T11:56:15Z</time>
      </trkpt>
      <trkpt lat="43.72024" lon="2.03045">
        <ele>360.511</ele>
        <time>2020-06-14T11:56:21Z</time>
      </trkpt>
      <trkpt lat="43.72008" lon="2.03029">
        <ele>360.64</ele>
        <time>2020-06-14T11:56:27Z</time>
      </trkpt>
      <trkpt lat="43.71997" lon="2.03017">
        <ele>360.704</ele>
        <time>2020-06-14T11:56:33Z</time>
      </trkpt>
      <trkpt lat="43.71988" lon="2.03009">
        <ele>360.62</ele>
        <time>2020-06-14T11:56:38Z</time>
      </trkpt>
      <trkpt lat="43.71976" lon="2.03002">
        <ele>360.518</ele>
        <time>2020-06-14T11:56:44Z</time>
      </trkpt>
      <trkpt lat="43.71968" lon="2.02998">
        <ele>360.446</ele>
        <time>2020-06-14T11:56:49Z</time>
      </trkpt>
      <trkpt lat="43.71961" lon="2.02996">
        <ele>360.396</ele>
        <time>2020-06-14T11:56:55Z</time>
      </trkpt>
      <trkpt lat="43.71951" lon="2.02995">
        <ele>360.392</ele>
        <time>2020-06-14T11:57:01Z</time>
      </trkpt>
      <trkpt lat="43.71934" lon="2.03001">
        <ele>360.418</ele>
        <time>2020-06-14T11:57:07Z</time>
      </trkpt>
      <trkpt lat="43.71914" lon="2.03">
        <ele>360.457</ele>
        <time>2020-06-14T11:57:12Z</time>
      </trkpt>
      <trkpt lat="43.71893" lon="2.02982">
        <ele>361.086</ele>
        <time>2020-06-14T11:57:18Z</time>
      </trkpt>
      <trkpt lat="43.71868" lon="2.02961">
        <ele>361.505</ele>
        <time>2020-06-14T11:57:23Z</time>
      </trkpt>
      <trkpt lat="43.71844" lon="2.0293">
        <ele>361.643</ele>
        <time>2020-06-14T11:57:29Z</time>
      </trkpt>
      <trkpt lat="43.71825" lon="2.02891">
        <ele>361.508</ele>
        <time>2020-06-14T11:57:35Z</time>
      </trkpt>
      <trkpt lat="43.71821" lon="2.02861">
        <ele>361.425</ele>
        <time>2020-06-14T11:57:40Z</time>
      </trkpt>
      <trkpt lat="43.71813" lon="2.02833">
        <ele>361.353</ele>
        <time>2020-06-14T11:57:46Z</time>
      </trkpt>
      <trkpt lat="43.71808" lon="2.02812">
        <ele>361.273</ele>
        <time>2020-06-14T11:57:51Z</time>
      </trkpt>
      <trkpt lat="43.71801" lon="2.02799">
        <ele>361.17</ele>
        <time>2020-06-14T11:57:57Z</time>
      </trkpt>
      <trkpt lat="43.71794" lon="2.02788">
        <ele>361.082</ele>
        <time>2020-06-14T11:58:02Z</time>
      </trkpt>
      <trkpt lat="43.71786" lon="2.02787">
        <ele>361.009</ele>
        <time>2020-06-14T11:58:08Z</time>
      </trkpt>
      <trkpt lat="43.7178" lon="2.0279">
        <ele>361</ele>
        <time>2020-06-14T11:58:13Z</time>
      </trkpt>
      <trkpt lat="43.7177" lon="2.02794">
        <ele>361.029</ele>
        <time>2020-06-14T11:58:19Z</time>
      </trkpt>
      <trkpt lat="43.7176" lon="2.02801">
        <ele>361.093</ele>
        <time>2020-06-14T11:58:25Z</time>
      </trkpt>
      <trkpt lat="43.71752" lon="2.02808">
        <ele>361.16</ele>
        <time>2020-06-14T11:58:30Z</time>
      </trkpt>
      <trkpt lat="43.71744" lon="2.02812">
        <ele>361.234</ele>
        <time>2020-06-14T11:58:35Z</time>
      </trkpt>
      <trkpt lat="43.71737" lon="2.02817">
        <ele>361.315</ele>
        <time>2020-06-14T11:58:40Z</time>
      </trkpt>
      <trkpt lat="43.71726" lon="2.02825">
        <ele>361.449</ele>
        <time>2020-06-14T11:58:46Z</time>
      </trkpt>
      <trkpt lat="43.71718" lon="2.02838">
        <ele>361.645</ele>
        <time>2020-06-14T11:58:52Z</time>
      </trkpt>
      <trkpt lat="43.71712" lon="2.02848">
        <ele>361.831</ele>
        <time>2020-06-14T11:58:57Z</time>
      </trkpt>
      <trkpt lat="43.71708" lon="2.02858">
        <ele>362.057</ele>
        <time>2020-06-14T11:59:03Z</time>
      </trkpt>
      <trkpt lat="43.71702" lon="2.02868">
        <ele>362.279</ele>
        <time>2020-06-14T11:59:09Z</time>
      </trkpt>
      <trkpt lat="43.71696" lon="2.02878">
        <ele>362.472</ele>
        <time>2020-06-14T11:59:14Z</time>
      </trkpt>
      <trkpt lat="43.71691" lon="2.02885">
        <ele>362.685</ele>
        <time>2020-06-14T11:59:19Z</time>
      </trkpt>
      <trkpt lat="43.71686" lon="2.02894">
        <ele>362.954</ele>
        <time>2020-06-14T11:59:25Z</time>
      </trkpt>
      <trkpt lat="43.71678" lon="2.02904">
        <ele>363.231</ele>
        <time>2020-06-14T11:59:31Z</time>
      </trkpt>
      <trkpt lat="43.71672" lon="2.02911">
        <ele>363.458</ele>
        <time>2020-06-14T11:59:36Z</time>
      </trkpt>
      <trkpt lat="43.71665" lon="2.02922">
        <ele>363.727</ele>
        <time>2020-06-14T11:59:42Z</time>
      </trkpt>
      <trkpt lat="43.7166" lon="2.02932">
        <ele>363.949</ele>
        <time>2020-06-14T11:59:47Z</time>
      </trkpt>
      <trkpt lat="43.71654" lon="2.02942">
        <ele>364.22</ele>
        <time>2020-06-14T11:59:53Z</time>
      </trkpt>
      <trkpt lat="43.71648" lon="2.0295">
        <ele>364.439</ele>
        <time>2020-06-14T11:59:58Z</time>
      </trkpt>
      <trkpt lat="43.71645" lon="2.02962">
        <ele>364.648</ele>
        <time>2020-06-14T12:00:03Z</time>
      </trkpt>
      <trkpt lat="43.71642" lon="2.02977">
        <ele>364.851</ele>
        <time>2020-06-14T12:00:08Z</time>
      </trkpt>
      <trkpt lat="43.71638" lon="2.02994">
        <ele>365.101</ele>
        <time>2020-06-14T12:00:14Z</time>
      </trkpt>
      <trkpt lat="43.7163" lon="2.03007">
        <ele>365.384</ele>
        <time>2020-06-14T12:00:20Z</time>
      </trkpt>
      <trkpt lat="43.71623" lon="2.03016">
        <ele>365.671</ele>
        <time>2020-06-14T12:00:25Z</time>
      </trkpt>
      <trkpt lat="43.71621" lon="2.03017">
        <ele>366.059</ele>
        <time>2020-06-14T12:00:31Z</time>
      </trkpt>
      <trkpt lat="43.71625" lon="2.0301">
        <ele>366.341</ele>
        <time>2020-06-14T12:00:36Z</time>
      </trkpt>
      <trkpt lat="43.71629" lon="2.03003">
        <ele>366.553</ele>
        <time>2020-06-14T12:00:41Z</time>
      </trkpt>
      <trkpt lat="43.71629" lon="2.03002">
        <ele>366.58</ele>
        <time>2020-06-14T12:00:46Z</time>
      </trkpt>
      <trkpt lat="43.71629" lon="2.03001">
        <ele>366.61</ele>
        <time>2020-06-14T12:00:52Z</time>
      </trkpt>
      <trkpt lat="43.71628" lon="2.03">
        <ele>366.64</ele>
        <time>2020-06-14T12:00:58Z</time>
      </trkpt>
      <trkpt lat="43.71627" lon="2.03">
        <ele>366.67</ele>
        <time>2020-06-14T12:01:04Z</time>
      </trkpt>
      <trkpt lat="43.71626" lon="2.02999">
        <ele>366.786</ele>
        <time>2020-06-14T12:01:09Z</time>
      </trkpt>
      <trkpt lat="43.71628" lon="2.02984">
        <ele>367.065</ele>
        <time>2020-06-14T12:01:15Z</time>
      </trkpt>
      <trkpt lat="43.71629" lon="2.0297">
        <ele>367.272</ele>
        <time>2020-06-14T12:01:20Z</time>
      </trkpt>
      <trkpt lat="43.7163" lon="2.02952">
        <ele>367.502</ele>
        <time>2020-06-14T12:01:26Z</time>
      </trkpt>
      <trkpt lat="43.7163" lon="2.02939">
        <ele>367.68</ele>
        <time>2020-06-14T12:01:31Z</time>
      </trkpt>
      <trkpt lat="43.71628" lon="2.02925">
        <ele>367.881</ele>
        <time>2020-06-14T12:01:37Z</time>
      </trkpt>
      <trkpt lat="43.71624" lon="2.02912">
        <ele>368.065</ele>
        <time>2020-06-14T12:01:43Z</time>
      </trkpt>
      <trkpt lat="43.71622" lon="2.02897">
        <ele>368.2</ele>
        <time>2020-06-14T12:01:48Z</time>
      </trkpt>
      <trkpt lat="43.7162" lon="2.02879">
        <ele>368.339</ele>
        <time>2020-06-14T12:01:54Z</time>
      </trkpt>
      <trkpt lat="43.71616" lon="2.02865">
        <ele>368.44</ele>
        <time>2020-06-14T12:01:59Z</time>
      </trkpt>
      <trkpt lat="43.71611" lon="2.02848">
        <ele>368.531</ele>
        <time>2020-06-14T12:02:04Z</time>
      </trkpt>
      <trkpt lat="43.71607" lon="2.02832">
        <ele>368.626</ele>
        <time>2020-06-14T12:02:09Z</time>
      </trkpt>
      <trkpt lat="43.71599" lon="2.0282">
        <ele>368.733</ele>
        <time>2020-06-14T12:02:15Z</time>
      </trkpt>
      <trkpt lat="43.71593" lon="2.02809">
        <ele>368.827</ele>
        <time>2020-06-14T12:02:21Z</time>
      </trkpt>
      <trkpt lat="43.71588" lon="2.02802">
        <ele>368.887</ele>
        <time>2020-06-14T12:02:26Z</time>
      </trkpt>
      <trkpt lat="43.71579" lon="2.02792">
        <ele>368.933</ele>
        <time>2020-06-14T12:02:32Z</time>
      </trkpt>
      <trkpt lat="43.7157" lon="2.0278">
        <ele>368.963</ele>
        <time>2020-06-14T12:02:38Z</time>
      </trkpt>
      <trkpt lat="43.71561" lon="2.02782">
        <ele>368.99</ele>
        <time>2020-06-14T12:02:43Z</time>
      </trkpt>
      <trkpt lat="43.71555" lon="2.02788">
        <ele>369.061</ele>
        <time>2020-06-14T12:02:49Z</time>
      </trkpt>
      <trkpt lat="43.71547" lon="2.02793">
        <ele>369.142</ele>
        <time>2020-06-14T12:02:54Z</time>
      </trkpt>
      <trkpt lat="43.71536" lon="2.02795">
        <ele>369.253</ele>
        <time>2020-06-14T12:03:00Z</time>
      </trkpt>
      <trkpt lat="43.71527" lon="2.028">
        <ele>369.378</ele>
        <time>2020-06-14T12:03:06Z</time>
      </trkpt>
      <trkpt lat="43.71524" lon="2.02803">
        <ele>369.448</ele>
        <time>2020-06-14T12:03:11Z</time>
      </trkpt>
      <trkpt lat="43.71524" lon="2.02804">
        <ele>369.468</ele>
        <time>2020-06-14T12:03:17Z</time>
      </trkpt>
      <trkpt lat="43.71524" lon="2.02804">
        <ele>369.501</ele>
        <time>2020-06-14T12:03:23Z</time>
      </trkpt>
      <trkpt lat="43.71524" lon="2.02804">
        <ele>369.549</ele>
        <time>2020-06-14T12:03:29Z</time>
      </trkpt>
      <trkpt lat="43.71522" lon="2.02805">
        <ele>369.827</ele>
        <time>2020-06-14T12:03:34Z</time>
      </trkpt>
      <trkpt lat="43.71511" lon="2.02812">
        <ele>370.324</ele>
        <time>2020-06-14T12:03:40Z</time>
      </trkpt>
      <trkpt lat="43.71484" lon="2.0282">
        <ele>372.428</ele>
        <time>2020-06-14T12:03:46Z</time>
      </trkpt>
      <trkpt lat="43.71454" lon="2.02825">
        <ele>373.729</ele>
        <time>2020-06-14T12:03:52Z</time>
      </trkpt>
      <trkpt lat="43.71436" lon="2.02829">
        <ele>374.116</ele>
        <time>2020-06-14T12:03:58Z</time>
      </trkpt>
      <trkpt lat="43.71422" lon="2.02849">
        <ele>374.43</ele>
        <time>2020-06-14T12:04:03Z</time>
      </trkpt>
      <trkpt lat="43.71396" lon="2.02895">
        <ele>374.55</ele>
        <time>2020-06-14T12:04:09Z</time>
      </trkpt>
      <trkpt lat="43.71362" lon="2.02938">
        <ele>374.837</ele>
        <time>2020-06-14T12:04:14Z</time>
      </trkpt>
      <trkpt lat="43.7132" lon="2.0297">
        <ele>375.83</ele>
        <time>2020-06-14T12:04:20Z</time>
      </trkpt>
      <trkpt lat="43.71287" lon="2.02973">
        <ele>377.087</ele>
        <time>2020-06-14T12:04:25Z</time>
      </trkpt>
      <trkpt lat="43.71253" lon="2.02967">
        <ele>378.968</ele>
        <time>2020-06-14T12:04:31Z</time>
      </trkpt>
      <trkpt lat="43.71226" lon="2.02958">
        <ele>378.268</ele>
        <time>2020-06-14T12:04:37Z</time>
      </trkpt>
      <trkpt lat="43.71202" lon="2.02949">
        <ele>378.201</ele>
        <time>2020-06-14T12:04:42Z</time>
      </trkpt>
      <trkpt lat="43.71166" lon="2.02964">
        <ele>376.308</ele>
        <time>2020-06-14T12:04:48Z</time>
      </trkpt>
      <trkpt lat="43.71132" lon="2.03001">
        <ele>373.805</ele>
        <time>2020-06-14T12:04:54Z</time>
      </trkpt>
      <trkpt lat="43.71107" lon="2.03035">
        <ele>372.623</ele>
        <time>2020-06-14T12:04:59Z</time>
      </trkpt>
      <trkpt lat="43.71081" lon="2.03072">
        <ele>372.593</ele>
        <time>2020-06-14T12:05:04Z</time>
      </trkpt>
      <trkpt lat="43.71056" lon="2.03111">
        <ele>373.32</ele>
        <time>2020-06-14T12:05:10Z</time>
      </trkpt>
      <trkpt lat="43.71042" lon="2.03143">
        <ele>374.631</ele>
        <time>2020-06-14T12:05:16Z</time>
      </trkpt>
      <trkpt lat="43.71029" lon="2.03176">
        <ele>375.482</ele>
        <time>2020-06-14T12:05:22Z</time>
      </trkpt>
      <trkpt lat="43.71018" lon="2.0319">
        <ele>375.539</ele>
        <time>2020-06-14T12:05:28Z</time>
      </trkpt>
      <trkpt lat="43.71008" lon="2.03203">
        <ele>375.617</ele>
        <time>2020-06-14T12:05:33Z</time>
      </trkpt>
      <trkpt lat="43.70972" lon="2.03244">
        <ele>373.949</ele>
        <time>2020-06-14T12:05:39Z</time>
      </trkpt>
      <trkpt lat="43.70929" lon="2.03282">
        <ele>366.897</ele>
        <time>2020-06-14T12:05:44Z</time>
      </trkpt>
      <trkpt lat="43.70889" lon="2.03334">
        <ele>363.719</ele>
        <time>2020-06-14T12:05:49Z</time>
      </trkpt>
      <trkpt lat="43.70841" lon="2.03378">
        <ele>362.133</ele>
        <time>2020-06-14T12:05:55Z</time>
      </trkpt>
      <trkpt lat="43.70801" lon="2.0341">
        <ele>360.857</ele>
        <time>2020-06-14T12:06:01Z</time>
      </trkpt>
      <trkpt lat="43.70767" lon="2.03434">
        <ele>358.667</ele>
        <time>2020-06-14T12:06:06Z</time>
      </trkpt>
      <trkpt lat="43.70722" lon="2.03446">
        <ele>356.461</ele>
        <time>2020-06-14T12:06:11Z</time>
      </trkpt>
      <trkpt lat="43.70663" lon="2.03458">
        <ele>354.914</ele>
        <time>2020-06-14T12:06:17Z</time>
      </trkpt>
      <trkpt lat="43.70621" lon="2.03455">
        <ele>355.035</ele>
        <time>2020-06-14T12:06:22Z</time>
      </trkpt>
      <trkpt lat="43.70586" lon="2.03435">
        <ele>355.115</ele>
        <time>2020-06-14T12:06:28Z</time>
      </trkpt>
      <trkpt lat="43.70556" lon="2.03427">
        <ele>354.39</ele>
        <time>2020-06-14T12:06:34Z</time>
      </trkpt>
      <trkpt lat="43.70523" lon="2.03421">
        <ele>353.38</ele>
        <time>2020-06-14T12:06:39Z</time>
      </trkpt>
      <trkpt lat="43.7049" lon="2.03419">
        <ele>352.683</ele>
        <time>2020-06-14T12:06:44Z</time>
      </trkpt>
      <trkpt lat="43.70451" lon="2.03417">
        <ele>351.307</ele>
        <time>2020-06-14T12:06:50Z</time>
      </trkpt>
      <trkpt lat="43.70416" lon="2.03417">
        <ele>350.049</ele>
        <time>2020-06-14T12:06:55Z</time>
      </trkpt>
      <trkpt lat="43.7038" lon="2.03426">
        <ele>348.769</ele>
        <time>2020-06-14T12:07:00Z</time>
      </trkpt>
      <trkpt lat="43.70346" lon="2.03446">
        <ele>347.721</ele>
        <time>2020-06-14T12:07:05Z</time>
      </trkpt>
      <trkpt lat="43.70306" lon="2.03479">
        <ele>345.568</ele>
        <time>2020-06-14T12:07:11Z</time>
      </trkpt>
      <trkpt lat="43.70271" lon="2.03506">
        <ele>343.9</ele>
        <time>2020-06-14T12:07:17Z</time>
      </trkpt>
      <trkpt lat="43.70231" lon="2.03524">
        <ele>342.406</ele>
        <time>2020-06-14T12:07:23Z</time>
      </trkpt>
      <trkpt lat="43.70188" lon="2.03525">
        <ele>340.222</ele>
        <time>2020-06-14T12:07:29Z</time>
      </trkpt>
      <trkpt lat="43.7015" lon="2.0352">
        <ele>337.622</ele>
        <time>2020-06-14T12:07:34Z</time>
      </trkpt>
      <trkpt lat="43.70113" lon="2.03506">
        <ele>334.649</ele>
        <time>2020-06-14T12:07:39Z</time>
      </trkpt>
      <trkpt lat="43.70074" lon="2.03488">
        <ele>332.785</ele>
        <time>2020-06-14T12:07:45Z</time>
      </trkpt>
      <trkpt lat="43.70051" lon="2.03506">
        <ele>330.333</ele>
        <time>2020-06-14T12:07:50Z</time>
      </trkpt>
      <trkpt lat="43.70034" lon="2.03515">
        <ele>329.408</ele>
        <time>2020-06-14T12:07:56Z</time>
      </trkpt>
      <trkpt lat="43.70024" lon="2.03497">
        <ele>327.973</ele>
        <time>2020-06-14T12:08:01Z</time>
      </trkpt>
      <trkpt lat="43.70008" lon="2.03471">
        <ele>322.736</ele>
        <time>2020-06-14T12:08:07Z</time>
      </trkpt>
      <trkpt lat="43.69995" lon="2.03443">
        <ele>321.002</ele>
        <time>2020-06-14T12:08:13Z</time>
      </trkpt>
      <trkpt lat="43.69987" lon="2.03423">
        <ele>319.648</ele>
        <time>2020-06-14T12:08:18Z</time>
      </trkpt>
      <trkpt lat="43.69975" lon="2.03395">
        <ele>318.192</ele>
        <time>2020-06-14T12:08:24Z</time>
      </trkpt>
      <trkpt lat="43.69962" lon="2.03368">
        <ele>316.904</ele>
        <time>2020-06-14T12:08:30Z</time>
      </trkpt>
      <trkpt lat="43.69955" lon="2.03341">
        <ele>315.901</ele>
        <time>2020-06-14T12:08:35Z</time>
      </trkpt>
      <trkpt lat="43.69945" lon="2.03315">
        <ele>314.738</ele>
        <time>2020-06-14T12:08:41Z</time>
      </trkpt>
      <trkpt lat="43.69939" lon="2.03288">
        <ele>313.644</ele>
        <time>2020-06-14T12:08:47Z</time>
      </trkpt>
      <trkpt lat="43.69933" lon="2.03272">
        <ele>312.827</ele>
        <time>2020-06-14T12:08:52Z</time>
      </trkpt>
      <trkpt lat="43.69927" lon="2.03256">
        <ele>312.05</ele>
        <time>2020-06-14T12:08:57Z</time>
      </trkpt>
      <trkpt lat="43.69923" lon="2.03231">
        <ele>311.153</ele>
        <time>2020-06-14T12:09:03Z</time>
      </trkpt>
      <trkpt lat="43.69918" lon="2.03209">
        <ele>310.423</ele>
        <time>2020-06-14T12:09:08Z</time>
      </trkpt>
      <trkpt lat="43.69915" lon="2.03179">
        <ele>309.571</ele>
        <time>2020-06-14T12:09:14Z</time>
      </trkpt>
      <trkpt lat="43.69912" lon="2.03142">
        <ele>304.437</ele>
        <time>2020-06-14T12:09:20Z</time>
      </trkpt>
      <trkpt lat="43.69909" lon="2.03107">
        <ele>303.103</ele>
        <time>2020-06-14T12:09:25Z</time>
      </trkpt>
      <trkpt lat="43.69905" lon="2.0306">
        <ele>302.487</ele>
        <time>2020-06-14T12:09:31Z</time>
      </trkpt>
      <trkpt lat="43.69901" lon="2.03011">
        <ele>302.201</ele>
        <time>2020-06-14T12:09:37Z</time>
      </trkpt>
      <trkpt lat="43.69896" lon="2.02971">
        <ele>302.121</ele>
        <time>2020-06-14T12:09:42Z</time>
      </trkpt>
      <trkpt lat="43.69892" lon="2.0293">
        <ele>302.324</ele>
        <time>2020-06-14T12:09:47Z</time>
      </trkpt>
      <trkpt lat="43.69887" lon="2.02882">
        <ele>303.22</ele>
        <time>2020-06-14T12:09:53Z</time>
      </trkpt>
      <trkpt lat="43.69881" lon="2.02844">
        <ele>303.643</ele>
        <time>2020-06-14T12:09:58Z</time>
      </trkpt>
      <trkpt lat="43.69873" lon="2.02808">
        <ele>303.335</ele>
        <time>2020-06-14T12:10:03Z</time>
      </trkpt>
      <trkpt lat="43.69866" lon="2.02776">
        <ele>302.575</ele>
        <time>2020-06-14T12:10:08Z</time>
      </trkpt>
      <trkpt lat="43.69855" lon="2.02741">
        <ele>301.547</ele>
        <time>2020-06-14T12:10:14Z</time>
      </trkpt>
      <trkpt lat="43.69846" lon="2.02708">
        <ele>300.785</ele>
        <time>2020-06-14T12:10:20Z</time>
      </trkpt>
      <trkpt lat="43.69837" lon="2.02679">
        <ele>300.13</ele>
        <time>2020-06-14T12:10:26Z</time>
      </trkpt>
      <trkpt lat="43.6983" lon="2.02655">
        <ele>299.945</ele>
        <time>2020-06-14T12:10:31Z</time>
      </trkpt>
      <trkpt lat="43.6982" lon="2.02627">
        <ele>299.83</ele>
        <time>2020-06-14T12:10:37Z</time>
      </trkpt>
      <trkpt lat="43.6981" lon="2.02604">
        <ele>299.711</ele>
        <time>2020-06-14T12:10:42Z</time>
      </trkpt>
      <trkpt lat="43.69793" lon="2.02576">
        <ele>299.55</ele>
        <time>2020-06-14T12:10:48Z</time>
      </trkpt>
      <trkpt lat="43.69769" lon="2.02542">
        <ele>299.387</ele>
        <time>2020-06-14T12:10:54Z</time>
      </trkpt>
      <trkpt lat="43.69743" lon="2.0251">
        <ele>299.192</ele>
        <time>2020-06-14T12:10:59Z</time>
      </trkpt>
      <trkpt lat="43.6971" lon="2.02481">
        <ele>299.101</ele>
        <time>2020-06-14T12:11:04Z</time>
      </trkpt>
      <trkpt lat="43.69673" lon="2.0244">
        <ele>297.914</ele>
        <time>2020-06-14T12:11:10Z</time>
      </trkpt>
      <trkpt lat="43.69658" lon="2.02401">
        <ele>296.541</ele>
        <time>2020-06-14T12:11:15Z</time>
      </trkpt>
      <trkpt lat="43.69635" lon="2.02351">
        <ele>295.925</ele>
        <time>2020-06-14T12:11:21Z</time>
      </trkpt>
      <trkpt lat="43.6961" lon="2.02304">
        <ele>295.79</ele>
        <time>2020-06-14T12:11:27Z</time>
      </trkpt>
      <trkpt lat="43.69592" lon="2.02265">
        <ele>295.215</ele>
        <time>2020-06-14T12:11:32Z</time>
      </trkpt>
      <trkpt lat="43.69574" lon="2.02228">
        <ele>295.387</ele>
        <time>2020-06-14T12:11:37Z</time>
      </trkpt>
      <trkpt lat="43.69554" lon="2.02186">
        <ele>295.574</ele>
        <time>2020-06-14T12:11:43Z</time>
      </trkpt>
      <trkpt lat="43.69536" lon="2.02153">
        <ele>295.853</ele>
        <time>2020-06-14T12:11:48Z</time>
      </trkpt>
      <trkpt lat="43.69504" lon="2.0211">
        <ele>295.958</ele>
        <time>2020-06-14T12:11:54Z</time>
      </trkpt>
      <trkpt lat="43.69471" lon="2.02077">
        <ele>295.591</ele>
        <time>2020-06-14T12:11:59Z</time>
      </trkpt>
      <trkpt lat="43.69426" lon="2.02042">
        <ele>296.234</ele>
        <time>2020-06-14T12:12:05Z</time>
      </trkpt>
      <trkpt lat="43.69384" lon="2.02028">
        <ele>295.175</ele>
        <time>2020-06-14T12:12:11Z</time>
      </trkpt>
      <trkpt lat="43.69356" lon="2.02009">
        <ele>295.761</ele>
        <time>2020-06-14T12:12:16Z</time>
      </trkpt>
      <trkpt lat="43.69324" lon="2.01988">
        <ele>292.744</ele>
        <time>2020-06-14T12:12:22Z</time>
      </trkpt>
      <trkpt lat="43.69298" lon="2.01965">
        <ele>289.894</ele>
        <time>2020-06-14T12:12:27Z</time>
      </trkpt>
      <trkpt lat="43.69268" lon="2.01928">
        <ele>287.349</ele>
        <time>2020-06-14T12:12:33Z</time>
      </trkpt>
      <trkpt lat="43.69241" lon="2.01891">
        <ele>285.641</ele>
        <time>2020-06-14T12:12:39Z</time>
      </trkpt>
      <trkpt lat="43.69223" lon="2.0186">
        <ele>285.584</ele>
        <time>2020-06-14T12:12:44Z</time>
      </trkpt>
      <trkpt lat="43.69204" lon="2.01823">
        <ele>286.069</ele>
        <time>2020-06-14T12:12:49Z</time>
      </trkpt>
      <trkpt lat="43.69179" lon="2.01777">
        <ele>284.728</ele>
        <time>2020-06-14T12:12:55Z</time>
      </trkpt>
      <trkpt lat="43.69159" lon="2.0174">
        <ele>284.227</ele>
        <time>2020-06-14T12:13:01Z</time>
      </trkpt>
      <trkpt lat="43.69143" lon="2.01709">
        <ele>284.176</ele>
        <time>2020-06-14T12:13:06Z</time>
      </trkpt>
      <trkpt lat="43.69123" lon="2.01663">
        <ele>284.06</ele>
        <time>2020-06-14T12:13:12Z</time>
      </trkpt>
      <trkpt lat="43.69107" lon="2.01613">
        <ele>282.735</ele>
        <time>2020-06-14T12:13:18Z</time>
      </trkpt>
      <trkpt lat="43.69104" lon="2.01556">
        <ele>281.14</ele>
        <time>2020-06-14T12:13:24Z</time>
      </trkpt>
      <trkpt lat="43.69103" lon="2.01514">
        <ele>279.634</ele>
        <time>2020-06-14T12:13:29Z</time>
      </trkpt>
      <trkpt lat="43.69085" lon="2.01475">
        <ele>277.819</ele>
        <time>2020-06-14T12:13:35Z</time>
      </trkpt>
      <trkpt lat="43.69056" lon="2.01451">
        <ele>276.456</ele>
        <time>2020-06-14T12:13:41Z</time>
      </trkpt>
      <trkpt lat="43.69029" lon="2.01429">
        <ele>274.218</ele>
        <time>2020-06-14T12:13:46Z</time>
      </trkpt>
      <trkpt lat="43.69001" lon="2.01409">
        <ele>272.759</ele>
        <time>2020-06-14T12:13:51Z</time>
      </trkpt>
      <trkpt lat="43.68967" lon="2.01384">
        <ele>271.91</ele>
        <time>2020-06-14T12:13:57Z</time>
      </trkpt>
      <trkpt lat="43.6893" lon="2.0136">
        <ele>271.472</ele>
        <time>2020-06-14T12:14:03Z</time>
      </trkpt>
      <trkpt lat="43.68902" lon="2.01339">
        <ele>271.681</ele>
        <time>2020-06-14T12:14:08Z</time>
      </trkpt>
      <trkpt lat="43.68872" lon="2.01316">
        <ele>272.331</ele>
        <time>2020-06-14T12:14:13Z</time>
      </trkpt>
      <trkpt lat="43.68849" lon="2.01301">
        <ele>272.16</ele>
        <time>2020-06-14T12:14:18Z</time>
      </trkpt>
      <trkpt lat="43.68829" lon="2.01283">
        <ele>270.977</ele>
        <time>2020-06-14T12:14:24Z</time>
      </trkpt>
      <trkpt lat="43.68811" lon="2.01257">
        <ele>270.286</ele>
        <time>2020-06-14T12:14:29Z</time>
      </trkpt>
      <trkpt lat="43.68792" lon="2.0123">
        <ele>270.184</ele>
        <time>2020-06-14T12:14:35Z</time>
      </trkpt>
      <trkpt lat="43.68769" lon="2.01205">
        <ele>270.724</ele>
        <time>2020-06-14T12:14:40Z</time>
      </trkpt>
      <trkpt lat="43.6875" lon="2.01162">
        <ele>269.647</ele>
        <time>2020-06-14T12:14:45Z</time>
      </trkpt>
      <trkpt lat="43.68732" lon="2.01124">
        <ele>268.467</ele>
        <time>2020-06-14T12:14:51Z</time>
      </trkpt>
      <trkpt lat="43.68719" lon="2.01083">
        <ele>267.772</ele>
        <time>2020-06-14T12:14:56Z</time>
      </trkpt>
      <trkpt lat="43.68705" lon="2.01021">
        <ele>267.376</ele>
        <time>2020-06-14T12:15:02Z</time>
      </trkpt>
      <trkpt lat="43.6869" lon="2.00988">
        <ele>266.812</ele>
        <time>2020-06-14T12:15:07Z</time>
      </trkpt>
      <trkpt lat="43.68669" lon="2.00941">
        <ele>266.158</ele>
        <time>2020-06-14T12:15:13Z</time>
      </trkpt>
      <trkpt lat="43.6865" lon="2.00904">
        <ele>265.806</ele>
        <time>2020-06-14T12:15:19Z</time>
      </trkpt>
      <trkpt lat="43.68631" lon="2.00882">
        <ele>265.506</ele>
        <time>2020-06-14T12:15:24Z</time>
      </trkpt>
      <trkpt lat="43.68605" lon="2.00851">
        <ele>265.498</ele>
        <time>2020-06-14T12:15:30Z</time>
      </trkpt>
      <trkpt lat="43.68575" lon="2.00834">
        <ele>265.496</ele>
        <time>2020-06-14T12:15:36Z</time>
      </trkpt>
      <trkpt lat="43.68546" lon="2.00819">
        <ele>265.694</ele>
        <time>2020-06-14T12:15:42Z</time>
      </trkpt>
      <trkpt lat="43.68502" lon="2.00798">
        <ele>265.319</ele>
        <time>2020-06-14T12:15:48Z</time>
      </trkpt>
      <trkpt lat="43.68458" lon="2.00777">
        <ele>264.784</ele>
        <time>2020-06-14T12:15:54Z</time>
      </trkpt>
      <trkpt lat="43.6843" lon="2.00763">
        <ele>264.368</ele>
        <time>2020-06-14T12:16:00Z</time>
      </trkpt>
      <trkpt lat="43.68402" lon="2.00736">
        <ele>263.881</ele>
        <time>2020-06-14T12:16:05Z</time>
      </trkpt>
      <trkpt lat="43.68373" lon="2.00696">
        <ele>263.398</ele>
        <time>2020-06-14T12:16:11Z</time>
      </trkpt>
      <trkpt lat="43.68348" lon="2.00659">
        <ele>263.142</ele>
        <time>2020-06-14T12:16:16Z</time>
      </trkpt>
      <trkpt lat="43.68313" lon="2.00613">
        <ele>262.425</ele>
        <time>2020-06-14T12:16:22Z</time>
      </trkpt>
      <trkpt lat="43.68294" lon="2.00577">
        <ele>262.055</ele>
        <time>2020-06-14T12:16:27Z</time>
      </trkpt>
      <trkpt lat="43.68275" lon="2.00539">
        <ele>261.622</ele>
        <time>2020-06-14T12:16:33Z</time>
      </trkpt>
      <trkpt lat="43.68248" lon="2.00483">
        <ele>260.964</ele>
        <time>2020-06-14T12:16:39Z</time>
      </trkpt>
      <trkpt lat="43.68235" lon="2.00448">
        <ele>260.548</ele>
        <time>2020-06-14T12:16:44Z</time>
      </trkpt>
      <trkpt lat="43.68221" lon="2.0041">
        <ele>260.105</ele>
        <time>2020-06-14T12:16:49Z</time>
      </trkpt>
      <trkpt lat="43.68205" lon="2.00371">
        <ele>259.409</ele>
        <time>2020-06-14T12:16:55Z</time>
      </trkpt>
      <trkpt lat="43.6818" lon="2.00314">
        <ele>258.395</ele>
        <time>2020-06-14T12:17:01Z</time>
      </trkpt>
      <trkpt lat="43.68158" lon="2.00276">
        <ele>257.654</ele>
        <time>2020-06-14T12:17:07Z</time>
      </trkpt>
      <trkpt lat="43.68138" lon="2.00244">
        <ele>257.385</ele>
        <time>2020-06-14T12:17:12Z</time>
      </trkpt>
      <trkpt lat="43.68123" lon="2.00218">
        <ele>257.163</ele>
        <time>2020-06-14T12:17:17Z</time>
      </trkpt>
      <trkpt lat="43.68105" lon="2.00187">
        <ele>256.937</ele>
        <time>2020-06-14T12:17:22Z</time>
      </trkpt>
      <trkpt lat="43.6807" lon="2.00129">
        <ele>255.971</ele>
        <time>2020-06-14T12:17:28Z</time>
      </trkpt>
      <trkpt lat="43.68046" lon="2.00088">
        <ele>255.067</ele>
        <time>2020-06-14T12:17:33Z</time>
      </trkpt>
      <trkpt lat="43.68023" lon="2.00046">
        <ele>254.384</ele>
        <time>2020-06-14T12:17:39Z</time>
      </trkpt>
      <trkpt lat="43.68008" lon="2.0001">
        <ele>253.998</ele>
        <time>2020-06-14T12:17:44Z</time>
      </trkpt>
      <trkpt lat="43.67997" lon="1.99963">
        <ele>253.917</ele>
        <time>2020-06-14T12:17:50Z</time>
      </trkpt>
      <trkpt lat="43.67984" lon="1.99927">
        <ele>253.745</ele>
        <time>2020-06-14T12:17:56Z</time>
      </trkpt>
      <trkpt lat="43.67975" lon="1.99908">
        <ele>253.738</ele>
        <time>2020-06-14T12:18:01Z</time>
      </trkpt>
      <trkpt lat="43.67968" lon="1.99893">
        <ele>253.622</ele>
        <time>2020-06-14T12:18:07Z</time>
      </trkpt>
      <trkpt lat="43.67955" lon="1.99878">
        <ele>253.45</ele>
        <time>2020-06-14T12:18:13Z</time>
      </trkpt>
      <trkpt lat="43.67936" lon="1.9986">
        <ele>252.465</ele>
        <time>2020-06-14T12:18:18Z</time>
      </trkpt>
      <trkpt lat="43.67914" lon="1.9984">
        <ele>252.192</ele>
        <time>2020-06-14T12:18:24Z</time>
      </trkpt>
      <trkpt lat="43.67892" lon="1.99819">
        <ele>251.947</ele>
        <time>2020-06-14T12:18:30Z</time>
      </trkpt>
      <trkpt lat="43.67873" lon="1.99797">
        <ele>251.865</ele>
        <time>2020-06-14T12:18:35Z</time>
      </trkpt>
      <trkpt lat="43.67855" lon="1.99778">
        <ele>251.775</ele>
        <time>2020-06-14T12:18:40Z</time>
      </trkpt>
      <trkpt lat="43.67822" lon="1.99748">
        <ele>251.488</ele>
        <time>2020-06-14T12:18:46Z</time>
      </trkpt>
      <trkpt lat="43.67796" lon="1.99713">
        <ele>251.085</ele>
        <time>2020-06-14T12:18:52Z</time>
      </trkpt>
      <trkpt lat="43.67775" lon="1.99686">
        <ele>250.941</ele>
        <time>2020-06-14T12:18:57Z</time>
      </trkpt>
      <trkpt lat="43.6775" lon="1.99657">
        <ele>250.798</ele>
        <time>2020-06-14T12:19:03Z</time>
      </trkpt>
      <trkpt lat="43.67725" lon="1.99624">
        <ele>250.61</ele>
        <time>2020-06-14T12:19:09Z</time>
      </trkpt>
      <trkpt lat="43.67704" lon="1.99599">
        <ele>250.524</ele>
        <time>2020-06-14T12:19:14Z</time>
      </trkpt>
      <trkpt lat="43.67684" lon="1.99575">
        <ele>250.429</ele>
        <time>2020-06-14T12:19:19Z</time>
      </trkpt>
      <trkpt lat="43.6766" lon="1.99557">
        <ele>250.418</ele>
        <time>2020-06-14T12:19:25Z</time>
      </trkpt>
      <trkpt lat="43.67641" lon="1.99535">
        <ele>250.554</ele>
        <time>2020-06-14T12:19:30Z</time>
      </trkpt>
      <trkpt lat="43.6762" lon="1.99514">
        <ele>250.542</ele>
        <time>2020-06-14T12:19:36Z</time>
      </trkpt>
      <trkpt lat="43.67599" lon="1.99491">
        <ele>250.406</ele>
        <time>2020-06-14T12:19:41Z</time>
      </trkpt>
      <trkpt lat="43.67572" lon="1.9946">
        <ele>250.263</ele>
        <time>2020-06-14T12:19:47Z</time>
      </trkpt>
      <trkpt lat="43.67552" lon="1.99424">
        <ele>250.068</ele>
        <time>2020-06-14T12:19:53Z</time>
      </trkpt>
      <trkpt lat="43.67528" lon="1.99396">
        <ele>249.88</ele>
        <time>2020-06-14T12:19:58Z</time>
      </trkpt>
      <trkpt lat="43.67496" lon="1.99366">
        <ele>249.675</ele>
        <time>2020-06-14T12:20:04Z</time>
      </trkpt>
      <trkpt lat="43.67476" lon="1.99349">
        <ele>249.48</ele>
        <time>2020-06-14T12:20:09Z</time>
      </trkpt>
      <trkpt lat="43.67448" lon="1.99328">
        <ele>249.16</ele>
        <time>2020-06-14T12:20:15Z</time>
      </trkpt>
      <trkpt lat="43.67415" lon="1.99301">
        <ele>248.895</ele>
        <time>2020-06-14T12:20:21Z</time>
      </trkpt>
      <trkpt lat="43.67388" lon="1.99287">
        <ele>248.665</ele>
        <time>2020-06-14T12:20:27Z</time>
      </trkpt>
      <trkpt lat="43.67367" lon="1.99279">
        <ele>248.568</ele>
        <time>2020-06-14T12:20:32Z</time>
      </trkpt>
      <trkpt lat="43.67333" lon="1.99263">
        <ele>248.303</ele>
        <time>2020-06-14T12:20:38Z</time>
      </trkpt>
      <trkpt lat="43.67306" lon="1.99256">
        <ele>248.144</ele>
        <time>2020-06-14T12:20:43Z</time>
      </trkpt>
      <trkpt lat="43.67273" lon="1.99244">
        <ele>247.907</ele>
        <time>2020-06-14T12:20:49Z</time>
      </trkpt>
      <trkpt lat="43.67246" lon="1.99232">
        <ele>247.631</ele>
        <time>2020-06-14T12:20:54Z</time>
      </trkpt>
      <trkpt lat="43.67211" lon="1.99219">
        <ele>247.384</ele>
        <time>2020-06-14T12:21:00Z</time>
      </trkpt>
      <trkpt lat="43.67182" lon="1.99209">
        <ele>247.158</ele>
        <time>2020-06-14T12:21:05Z</time>
      </trkpt>
      <trkpt lat="43.67147" lon="1.99197">
        <ele>246.843</ele>
        <time>2020-06-14T12:21:11Z</time>
      </trkpt>
      <trkpt lat="43.67119" lon="1.9919">
        <ele>246.587</ele>
        <time>2020-06-14T12:21:16Z</time>
      </trkpt>
      <trkpt lat="43.67086" lon="1.99187">
        <ele>246.225</ele>
        <time>2020-06-14T12:21:22Z</time>
      </trkpt>
      <trkpt lat="43.6706" lon="1.99189">
        <ele>245.867</ele>
        <time>2020-06-14T12:21:27Z</time>
      </trkpt>
      <trkpt lat="43.67026" lon="1.99191">
        <ele>245.448</ele>
        <time>2020-06-14T12:21:33Z</time>
      </trkpt>
      <trkpt lat="43.67" lon="1.99194">
        <ele>245.158</ele>
        <time>2020-06-14T12:21:38Z</time>
      </trkpt>
      <trkpt lat="43.66981" lon="1.992">
        <ele>245.113</ele>
        <time>2020-06-14T12:21:43Z</time>
      </trkpt>
      <trkpt lat="43.66954" lon="1.99204">
        <ele>245.039</ele>
        <time>2020-06-14T12:21:49Z</time>
      </trkpt>
      <trkpt lat="43.66921" lon="1.99211">
        <ele>244.716</ele>
        <time>2020-06-14T12:21:55Z</time>
      </trkpt>
      <trkpt lat="43.66885" lon="1.99215">
        <ele>244.35</ele>
        <time>2020-06-14T12:22:01Z</time>
      </trkpt>
      <trkpt lat="43.66856" lon="1.99218">
        <ele>244.166</ele>
        <time>2020-06-14T12:22:06Z</time>
      </trkpt>
      <trkpt lat="43.66823" lon="1.9922">
        <ele>243.89</ele>
        <time>2020-06-14T12:22:12Z</time>
      </trkpt>
      <trkpt lat="43.66783" lon="1.99217">
        <ele>243.377</ele>
        <time>2020-06-14T12:22:18Z</time>
      </trkpt>
      <trkpt lat="43.66754" lon="1.99211">
        <ele>243.105</ele>
        <time>2020-06-14T12:22:23Z</time>
      </trkpt>
      <trkpt lat="43.66721" lon="1.99207">
        <ele>242.863</ele>
        <time>2020-06-14T12:22:29Z</time>
      </trkpt>
      <trkpt lat="43.66694" lon="1.99209">
        <ele>242.561</ele>
        <time>2020-06-14T12:22:34Z</time>
      </trkpt>
      <trkpt lat="43.66661" lon="1.99197">
        <ele>242.281</ele>
        <time>2020-06-14T12:22:39Z</time>
      </trkpt>
      <trkpt lat="43.66625" lon="1.99188">
        <ele>241.835</ele>
        <time>2020-06-14T12:22:45Z</time>
      </trkpt>
      <trkpt lat="43.66599" lon="1.99172">
        <ele>241.529</ele>
        <time>2020-06-14T12:22:50Z</time>
      </trkpt>
      <trkpt lat="43.66568" lon="1.99143">
        <ele>241.329</ele>
        <time>2020-06-14T12:22:56Z</time>
      </trkpt>
      <trkpt lat="43.6654" lon="1.9911">
        <ele>241.058</ele>
        <time>2020-06-14T12:23:01Z</time>
      </trkpt>
      <trkpt lat="43.66506" lon="1.99066">
        <ele>239.999</ele>
        <time>2020-06-14T12:23:07Z</time>
      </trkpt>
      <trkpt lat="43.66472" lon="1.99027">
        <ele>238.537</ele>
        <time>2020-06-14T12:23:13Z</time>
      </trkpt>
      <trkpt lat="43.66444" lon="1.98996">
        <ele>237.145</ele>
        <time>2020-06-14T12:23:18Z</time>
      </trkpt>
      <trkpt lat="43.66414" lon="1.98963">
        <ele>235.394</ele>
        <time>2020-06-14T12:23:24Z</time>
      </trkpt>
      <trkpt lat="43.6639" lon="1.98936">
        <ele>234.156</ele>
        <time>2020-06-14T12:23:29Z</time>
      </trkpt>
      <trkpt lat="43.6636" lon="1.98902">
        <ele>232.761</ele>
        <time>2020-06-14T12:23:35Z</time>
      </trkpt>
      <trkpt lat="43.66329" lon="1.98867">
        <ele>231.006</ele>
        <time>2020-06-14T12:23:41Z</time>
      </trkpt>
      <trkpt lat="43.66299" lon="1.98833">
        <ele>230.074</ele>
        <time>2020-06-14T12:23:47Z</time>
      </trkpt>
      <trkpt lat="43.6627" lon="1.98797">
        <ele>229.518</ele>
        <time>2020-06-14T12:23:53Z</time>
      </trkpt>
      <trkpt lat="43.66241" lon="1.98765">
        <ele>229.366</ele>
        <time>2020-06-14T12:23:59Z</time>
      </trkpt>
      <trkpt lat="43.66212" lon="1.98733">
        <ele>229.323</ele>
        <time>2020-06-14T12:24:05Z</time>
      </trkpt>
      <trkpt lat="43.66185" lon="1.987">
        <ele>229.179</ele>
        <time>2020-06-14T12:24:11Z</time>
      </trkpt>
      <trkpt lat="43.66157" lon="1.98664">
        <ele>228.584</ele>
        <time>2020-06-14T12:24:17Z</time>
      </trkpt>
      <trkpt lat="43.66136" lon="1.98639">
        <ele>227.908</ele>
        <time>2020-06-14T12:24:22Z</time>
      </trkpt>
      <trkpt lat="43.66109" lon="1.98609">
        <ele>226.948</ele>
        <time>2020-06-14T12:24:28Z</time>
      </trkpt>
      <trkpt lat="43.66081" lon="1.98579">
        <ele>226.15</ele>
        <time>2020-06-14T12:24:34Z</time>
      </trkpt>
      <trkpt lat="43.66056" lon="1.9855">
        <ele>225.374</ele>
        <time>2020-06-14T12:24:40Z</time>
      </trkpt>
      <trkpt lat="43.66035" lon="1.98524">
        <ele>224.609</ele>
        <time>2020-06-14T12:24:45Z</time>
      </trkpt>
      <trkpt lat="43.66013" lon="1.98495">
        <ele>223.583</ele>
        <time>2020-06-14T12:24:51Z</time>
      </trkpt>
      <trkpt lat="43.65994" lon="1.98472">
        <ele>222.699</ele>
        <time>2020-06-14T12:24:56Z</time>
      </trkpt>
      <trkpt lat="43.6597" lon="1.98446">
        <ele>221.399</ele>
        <time>2020-06-14T12:25:02Z</time>
      </trkpt>
      <trkpt lat="43.65946" lon="1.9842">
        <ele>220.676</ele>
        <time>2020-06-14T12:25:07Z</time>
      </trkpt>
      <trkpt lat="43.65917" lon="1.98388">
        <ele>220.164</ele>
        <time>2020-06-14T12:25:13Z</time>
      </trkpt>
      <trkpt lat="43.65889" lon="1.98357">
        <ele>219.865</ele>
        <time>2020-06-14T12:25:19Z</time>
      </trkpt>
      <trkpt lat="43.65869" lon="1.98332">
        <ele>219.755</ele>
        <time>2020-06-14T12:25:24Z</time>
      </trkpt>
      <trkpt lat="43.65841" lon="1.98302">
        <ele>219.643</ele>
        <time>2020-06-14T12:25:30Z</time>
      </trkpt>
      <trkpt lat="43.65817" lon="1.98275">
        <ele>219.504</ele>
        <time>2020-06-14T12:25:36Z</time>
      </trkpt>
      <trkpt lat="43.65792" lon="1.98247">
        <ele>219.351</ele>
        <time>2020-06-14T12:25:42Z</time>
      </trkpt>
      <trkpt lat="43.65772" lon="1.98225">
        <ele>219.24</ele>
        <time>2020-06-14T12:25:47Z</time>
      </trkpt>
      <trkpt lat="43.6575" lon="1.98199">
        <ele>219.17</ele>
        <time>2020-06-14T12:25:53Z</time>
      </trkpt>
      <trkpt lat="43.6573" lon="1.98172">
        <ele>219.027</ele>
        <time>2020-06-14T12:25:59Z</time>
      </trkpt>
      <trkpt lat="43.65711" lon="1.98149">
        <ele>218.961</ele>
        <time>2020-06-14T12:26:05Z</time>
      </trkpt>
      <trkpt lat="43.65695" lon="1.98132">
        <ele>218.827</ele>
        <time>2020-06-14T12:26:10Z</time>
      </trkpt>
      <trkpt lat="43.65679" lon="1.98112">
        <ele>218.806</ele>
        <time>2020-06-14T12:26:16Z</time>
      </trkpt>
      <trkpt lat="43.6567" lon="1.98096">
        <ele>218.791</ele>
        <time>2020-06-14T12:26:21Z</time>
      </trkpt>
      <trkpt lat="43.65663" lon="1.98086">
        <ele>218.785</ele>
        <time>2020-06-14T12:26:27Z</time>
      </trkpt>
      <trkpt lat="43.65663" lon="1.98086">
        <ele>218.783</ele>
        <time>2020-06-14T12:26:33Z</time>
      </trkpt>
      <trkpt lat="43.65663" lon="1.98086">
        <ele>218.78</ele>
        <time>2020-06-14T12:26:39Z</time>
      </trkpt>
      <trkpt lat="43.65662" lon="1.98086">
        <ele>218.779</ele>
        <time>2020-06-14T12:26:45Z</time>
      </trkpt>
      <trkpt lat="43.65661" lon="1.98086">
        <ele>218.784</ele>
        <time>2020-06-14T12:26:51Z</time>
      </trkpt>
      <trkpt lat="43.65661" lon="1.98085">
        <ele>218.79</ele>
        <time>2020-06-14T12:26:57Z</time>
      </trkpt>
      <trkpt lat="43.6566" lon="1.98083">
        <ele>218.81</ele>
        <time>2020-06-14T12:27:03Z</time>
      </trkpt>
      <trkpt lat="43.6566" lon="1.98082">
        <ele>218.821</ele>
        <time>2020-06-14T12:27:09Z</time>
      </trkpt>
      <trkpt lat="43.6566" lon="1.98082">
        <ele>218.83</ele>
        <time>2020-06-14T12:27:14Z</time>
      </trkpt>
      <trkpt lat="43.65659" lon="1.98081">
        <ele>218.838</ele>
        <time>2020-06-14T12:27:20Z</time>
      </trkpt>
      <trkpt lat="43.65659" lon="1.9808">
        <ele>218.839</ele>
        <time>2020-06-14T12:27:25Z</time>
      </trkpt>
      <trkpt lat="43.65659" lon="1.9808">
        <ele>218.834</ele>
        <time>2020-06-14T12:27:30Z</time>
      </trkpt>
      <trkpt lat="43.65659" lon="1.9808">
        <ele>218.823</ele>
        <time>2020-06-14T12:27:35Z</time>
      </trkpt>
      <trkpt lat="43.65658" lon="1.9808">
        <ele>218.807</ele>
        <time>2020-06-14T12:27:40Z</time>
      </trkpt>
      <trkpt lat="43.65658" lon="1.9808">
        <ele>218.786</ele>
        <time>2020-06-14T12:27:46Z</time>
      </trkpt>
      <trkpt lat="43.65658" lon="1.9808">
        <ele>218.763</ele>
        <time>2020-06-14T12:27:52Z</time>
      </trkpt>
      <trkpt lat="43.65658" lon="1.9808">
        <ele>218.74</ele>
        <time>2020-06-14T12:27:58Z</time>
      </trkpt>
      <trkpt lat="43.65658" lon="1.98079">
        <ele>218.719</ele>
        <time>2020-06-14T12:28:03Z</time>
      </trkpt>
      <trkpt lat="43.65658" lon="1.98079">
        <ele>218.691</ele>
        <time>2020-06-14T12:28:09Z</time>
      </trkpt>
      <trkpt lat="43.65658" lon="1.98079">
        <ele>218.667</ele>
        <time>2020-06-14T12:28:14Z</time>
      </trkpt>
      <trkpt lat="43.65658" lon="1.98079">
        <ele>218.637</ele>
        <time>2020-06-14T12:28:20Z</time>
      </trkpt>
      <trkpt lat="43.65658" lon="1.98079">
        <ele>218.61</ele>
        <time>2020-06-14T12:28:25Z</time>
      </trkpt>
      <trkpt lat="43.65658" lon="1.98079">
        <ele>218.577</ele>
        <time>2020-06-14T12:28:31Z</time>
      </trkpt>
      <trkpt lat="43.65658" lon="1.98078">
        <ele>218.543</ele>
        <time>2020-06-14T12:28:37Z</time>
      </trkpt>
      <trkpt lat="43.65657" lon="1.98077">
        <ele>218.508</ele>
        <time>2020-06-14T12:28:43Z</time>
      </trkpt>
      <trkpt lat="43.65658" lon="1.98078">
        <ele>218.479</ele>
        <time>2020-06-14T12:28:48Z</time>
      </trkpt>
      <trkpt lat="43.65659" lon="1.98078">
        <ele>218.443</ele>
        <time>2020-06-14T12:28:54Z</time>
      </trkpt>
      <trkpt lat="43.65659" lon="1.98078">
        <ele>218.363</ele>
        <time>2020-06-14T12:28:59Z</time>
      </trkpt>
      <trkpt lat="43.65659" lon="1.98078">
        <ele>218.333</ele>
        <time>2020-06-14T12:29:04Z</time>
      </trkpt>
      <trkpt lat="43.65658" lon="1.98077">
        <ele>218.298</ele>
        <time>2020-06-14T12:29:10Z</time>
      </trkpt>
      <trkpt lat="43.65658" lon="1.98076">
        <ele>218.26</ele>
        <time>2020-06-14T12:29:16Z</time>
      </trkpt>
      <trkpt lat="43.65658" lon="1.98075">
        <ele>218.223</ele>
        <time>2020-06-14T12:29:22Z</time>
      </trkpt>
      <trkpt lat="43.65658" lon="1.98075">
        <ele>218.191</ele>
        <time>2020-06-14T12:29:27Z</time>
      </trkpt>
      <trkpt lat="43.65658" lon="1.98075">
        <ele>218.099</ele>
        <time>2020-06-14T12:29:32Z</time>
      </trkpt>
      <trkpt lat="43.65657" lon="1.98074">
        <ele>217.998</ele>
        <time>2020-06-14T12:29:38Z</time>
      </trkpt>
      <trkpt lat="43.65656" lon="1.98074">
        <ele>217.963</ele>
        <time>2020-06-14T12:29:43Z</time>
      </trkpt>
      <trkpt lat="43.65656" lon="1.98074">
        <ele>217.796</ele>
        <time>2020-06-14T12:29:49Z</time>
      </trkpt>
      <trkpt lat="43.65656" lon="1.98074">
        <ele>217.755</ele>
        <time>2020-06-14T12:29:55Z</time>
      </trkpt>
      <trkpt lat="43.65656" lon="1.98074">
        <ele>217.714</ele>
        <time>2020-06-14T12:30:01Z</time>
      </trkpt>
      <trkpt lat="43.65657" lon="1.98075">
        <ele>217.551</ele>
        <time>2020-06-14T12:30:06Z</time>
      </trkpt>
      <trkpt lat="43.65657" lon="1.98075">
        <ele>217.514</ele>
        <time>2020-06-14T12:30:11Z</time>
      </trkpt>
      <trkpt lat="43.65657" lon="1.98075">
        <ele>217.408</ele>
        <time>2020-06-14T12:30:16Z</time>
      </trkpt>
      <trkpt lat="43.65657" lon="1.98075">
        <ele>217.358</ele>
        <time>2020-06-14T12:30:22Z</time>
      </trkpt>
      <trkpt lat="43.65657" lon="1.98075">
        <ele>217.159</ele>
        <time>2020-06-14T12:30:27Z</time>
      </trkpt>
      <trkpt lat="43.65657" lon="1.98075">
        <ele>217.107</ele>
        <time>2020-06-14T12:30:33Z</time>
      </trkpt>
      <trkpt lat="43.65657" lon="1.98076">
        <ele>217.054</ele>
        <time>2020-06-14T12:30:39Z</time>
      </trkpt>
      <trkpt lat="43.65657" lon="1.98076">
        <ele>217.008</ele>
        <time>2020-06-14T12:30:44Z</time>
      </trkpt>
      <trkpt lat="43.65656" lon="1.98076">
        <ele>216.634</ele>
        <time>2020-06-14T12:30:49Z</time>
      </trkpt>
      <trkpt lat="43.6565" lon="1.98072">
        <ele>216.207</ele>
        <time>2020-06-14T12:30:54Z</time>
      </trkpt>
      <trkpt lat="43.65637" lon="1.98058">
        <ele>215.748</ele>
        <time>2020-06-14T12:31:00Z</time>
      </trkpt>
      <trkpt lat="43.65622" lon="1.98042">
        <ele>215.345</ele>
        <time>2020-06-14T12:31:06Z</time>
      </trkpt>
      <trkpt lat="43.65605" lon="1.98027">
        <ele>214.515</ele>
        <time>2020-06-14T12:31:11Z</time>
      </trkpt>
      <trkpt lat="43.65583" lon="1.98004">
        <ele>213.309</ele>
        <time>2020-06-14T12:31:17Z</time>
      </trkpt>
      <trkpt lat="43.65562" lon="1.97977">
        <ele>212.569</ele>
        <time>2020-06-14T12:31:23Z</time>
      </trkpt>
      <trkpt lat="43.65546" lon="1.97958">
        <ele>212.322</ele>
        <time>2020-06-14T12:31:28Z</time>
      </trkpt>
      <trkpt lat="43.65528" lon="1.97933">
        <ele>212.237</ele>
        <time>2020-06-14T12:31:34Z</time>
      </trkpt>
      <trkpt lat="43.65512" lon="1.97913">
        <ele>212.179</ele>
        <time>2020-06-14T12:31:39Z</time>
      </trkpt>
      <trkpt lat="43.65491" lon="1.97888">
        <ele>212.174</ele>
        <time>2020-06-14T12:31:45Z</time>
      </trkpt>
      <trkpt lat="43.65478" lon="1.97871">
        <ele>212.186</ele>
        <time>2020-06-14T12:31:50Z</time>
      </trkpt>
      <trkpt lat="43.65457" lon="1.97848">
        <ele>212.205</ele>
        <time>2020-06-14T12:31:56Z</time>
      </trkpt>
      <trkpt lat="43.65446" lon="1.97836">
        <ele>212.211</ele>
        <time>2020-06-14T12:32:01Z</time>
      </trkpt>
      <trkpt lat="43.65433" lon="1.97819">
        <ele>212.21</ele>
        <time>2020-06-14T12:32:07Z</time>
      </trkpt>
      <trkpt lat="43.65437" lon="1.9779">
        <ele>212.17</ele>
        <time>2020-06-14T12:32:13Z</time>
      </trkpt>
      <trkpt lat="43.65447" lon="1.97772">
        <ele>212.155</ele>
        <time>2020-06-14T12:32:18Z</time>
      </trkpt>
      <trkpt lat="43.65458" lon="1.97753">
        <ele>212.136</ele>
        <time>2020-06-14T12:32:24Z</time>
      </trkpt>
      <trkpt lat="43.65465" lon="1.97735">
        <ele>212.115</ele>
        <time>2020-06-14T12:32:29Z</time>
      </trkpt>
      <trkpt lat="43.65475" lon="1.97713">
        <ele>212.089</ele>
        <time>2020-06-14T12:32:35Z</time>
      </trkpt>
      <trkpt lat="43.65489" lon="1.97688">
        <ele>212.064</ele>
        <time>2020-06-14T12:32:41Z</time>
      </trkpt>
      <trkpt lat="43.655" lon="1.97662">
        <ele>212.036</ele>
        <time>2020-06-14T12:32:47Z</time>
      </trkpt>
      <trkpt lat="43.6551" lon="1.9764">
        <ele>212.011</ele>
        <time>2020-06-14T12:32:52Z</time>
      </trkpt>
      <trkpt lat="43.65525" lon="1.97607">
        <ele>211.862</ele>
        <time>2020-06-14T12:32:58Z</time>
      </trkpt>
      <trkpt lat="43.65537" lon="1.97574">
        <ele>211.769</ele>
        <time>2020-06-14T12:33:04Z</time>
      </trkpt>
      <trkpt lat="43.65543" lon="1.97546">
        <ele>211.672</ele>
        <time>2020-06-14T12:33:09Z</time>
      </trkpt>
      <trkpt lat="43.65551" lon="1.97514">
        <ele>211.603</ele>
        <time>2020-06-14T12:33:15Z</time>
      </trkpt>
      <trkpt lat="43.65559" lon="1.97485">
        <ele>211.56</ele>
        <time>2020-06-14T12:33:21Z</time>
      </trkpt>
      <trkpt lat="43.65568" lon="1.97456">
        <ele>211.537</ele>
        <time>2020-06-14T12:33:27Z</time>
      </trkpt>
      <trkpt lat="43.65576" lon="1.97433">
        <ele>211.516</ele>
        <time>2020-06-14T12:33:32Z</time>
      </trkpt>
      <trkpt lat="43.65583" lon="1.97412">
        <ele>211.492</ele>
        <time>2020-06-14T12:33:37Z</time>
      </trkpt>
      <trkpt lat="43.65593" lon="1.97392">
        <ele>211.463</ele>
        <time>2020-06-14T12:33:43Z</time>
      </trkpt>
      <trkpt lat="43.65607" lon="1.97393">
        <ele>211.444</ele>
        <time>2020-06-14T12:33:49Z</time>
      </trkpt>
      <trkpt lat="43.65614" lon="1.97393">
        <ele>211.423</ele>
        <time>2020-06-14T12:33:54Z</time>
      </trkpt>
      <trkpt lat="43.65614" lon="1.97394">
        <ele>211.391</ele>
        <time>2020-06-14T12:34:00Z</time>
      </trkpt>
      <trkpt lat="43.65615" lon="1.97396">
        <ele>211.375</ele>
        <time>2020-06-14T12:34:05Z</time>
      </trkpt>
      <trkpt lat="43.65616" lon="1.97396">
        <ele>211.347</ele>
        <time>2020-06-14T12:34:10Z</time>
      </trkpt>
      <trkpt lat="43.65618" lon="1.97398">
        <ele>211.327</ele>
        <time>2020-06-14T12:34:15Z</time>
      </trkpt>
      <trkpt lat="43.65618" lon="1.97398">
        <ele>211.296</ele>
        <time>2020-06-14T12:34:21Z</time>
      </trkpt>
      <trkpt lat="43.65618" lon="1.97398">
        <ele>211.245</ele>
        <time>2020-06-14T12:34:26Z</time>
      </trkpt>
      <trkpt lat="43.65621" lon="1.97401">
        <ele>211.195</ele>
        <time>2020-06-14T12:34:31Z</time>
      </trkpt>
      <trkpt lat="43.65621" lon="1.97402">
        <ele>211.164</ele>
        <time>2020-06-14T12:34:36Z</time>
      </trkpt>
      <trkpt lat="43.65621" lon="1.97402">
        <ele>211.158</ele>
        <time>2020-06-14T12:34:42Z</time>
      </trkpt>
      <trkpt lat="43.65621" lon="1.97403">
        <ele>211.153</ele>
        <time>2020-06-14T12:34:47Z</time>
      </trkpt>
      <trkpt lat="43.65621" lon="1.97403">
        <ele>211.148</ele>
        <time>2020-06-14T12:34:52Z</time>
      </trkpt>
      <trkpt lat="43.65622" lon="1.97403">
        <ele>211.134</ele>
        <time>2020-06-14T12:34:58Z</time>
      </trkpt>
      <trkpt lat="43.65624" lon="1.97403">
        <ele>211.087</ele>
        <time>2020-06-14T12:35:04Z</time>
      </trkpt>
      <trkpt lat="43.6563" lon="1.97404">
        <ele>211.02</ele>
        <time>2020-06-14T12:35:10Z</time>
      </trkpt>
      <trkpt lat="43.65632" lon="1.97405">
        <ele>210.972</ele>
        <time>2020-06-14T12:35:16Z</time>
      </trkpt>
      <trkpt lat="43.65632" lon="1.97404">
        <ele>210.953</ele>
        <time>2020-06-14T12:35:21Z</time>
      </trkpt>
      <trkpt lat="43.65632" lon="1.97404">
        <ele>210.946</ele>
        <time>2020-06-14T12:35:27Z</time>
      </trkpt>
    </trkseg>
  </trk>
</gpx>